Observation data for JA Ranch on 08/13/2019      Previous  Date       Current Mesonet Observations  Soil Data  Daily Summary Page  Observations in Plain Language
KPD3 130500Z 03016KT 23/20 A3001 RMK A01 T02320196  RH  081%=      5-min Rain = 0
KPD3 130501Z 02017KT 23/20 A3001 RMK A01 T02320197  RH  080%=      5-min Rain = 0
KPD3 130502Z 02015KT 23/20 A3001 RMK A01 T02330196  RH  080%=      5-min Rain = 0
KPD3 130503Z 02015KT 23/20 A3001 RMK A01 T02330196  RH  080%=      5-min Rain = 0
KPD3 130504Z 02017KT 23/20 A3001 RMK A01 T02330196  RH  079%=      5-min Rain = 0
KPD3 130505Z 01018KT 23/20 A3001 RMK A01 T02340195  RH  079%=      5-min Rain = 0
KPD3 130506Z 01013KT 23/19 A3002 RMK A01 T02340194  RH  078%=      5-min Rain = 0
KPD3 130507Z 01013KT 24/19 A3002 RMK A01 T02350194  RH  078%=      5-min Rain = 0
KPD3 130508Z 36014KT 24/19 A3002 RMK A01 T02350194  RH  078%=      5-min Rain = 0
KPD3 130509Z 00015G20KT 24/19 A3002 RMK A01 T02350194  RH  078%=      5-min Rain = 0
KPD3 130510Z 00016KT 23/19 A3002 RMK A01 T02340194  RH  078%=      5-min Rain = 0
KPD3 130511Z 00017KT 23/20 A3002 RMK A01 T02340195  RH  079%=      5-min Rain = 0
KPD3 130512Z 00017KT 23/20 A3002 RMK A01 T02340195  RH  079%=      5-min Rain = 0
KPD3 130513Z 00016KT 23/20 A3002 RMK A01 T02330195  RH  079%=      5-min Rain = 0
KPD3 130514Z 01016KT 23/20 A3002 RMK A01 T02330195  RH  079%=      5-min Rain = 0
KPD3 130515Z 01014G19KT 23/20 A3002 RMK A01 T02330195  RH  079%=      5-min Rain = 0
KPD3 130516Z 01016KT 23/20 A3002 RMK A01 T02320195  RH  080%=      5-min Rain = 0
KPD3 130517Z 02014KT 23/20 A3002 RMK A01 T02330196  RH  080%=      5-min Rain = 0
KPD3 130518Z 02013G18KT 23/20 A3001 RMK A01 T02320195  RH  080%=      5-min Rain = 0
KPD3 130519Z 03015KT 23/20 A3001 RMK A01 T02320195  RH  080%=      5-min Rain = 0
KPD3 130520Z 02015KT 23/20 A3001 RMK A01 T02320195  RH  079%=      5-min Rain = 0
KPD3 130521Z 03015KT 23/19 A3001 RMK A01 T02320194  RH  079%=      5-min Rain = 0
KPD3 130522Z 03013KT 23/20 A3001 RMK A01 T02330195  RH  079%=      5-min Rain = 0
KPD3 130523Z 03012KT 23/19 A3001 RMK A01 T02330194  RH  079%=      5-min Rain = 0
KPD3 130524Z 03014G20KT 23/19 A3001 RMK A01 T02330194  RH  079%=      5-min Rain = 0
KPD3 130525Z 03012KT 23/19 A3001 RMK A01 T02340194  RH  078%=      5-min Rain = 0
KPD3 130526Z 03015KT 23/19 A3001 RMK A01 T02340194  RH  078%=      5-min Rain = 0
KPD3 130527Z 04015KT 24/19 A3001 RMK A01 T02350194  RH  078%=      5-min Rain = 0
KPD3 130528Z 03015KT 24/19 A3001 RMK A01 T02350193  RH  077%=      5-min Rain = 0
KPD3 130529Z 03014KT 24/19 A3001 RMK A01 T02360193  RH  077%=      5-min Rain = 0
KPD3 130530Z 03015KT 24/19 A3001 RMK A01 T02360193  RH  076%=      5-min Rain = 0
KPD3 130531Z 03015KT 24/19 A3001 RMK A01 T02370193  RH  076%=      5-min Rain = 0
KPD3 130532Z 04013KT 24/19 A3001 RMK A01 T02370192  RH  076%=      5-min Rain = 0
KPD3 130533Z 03013G18KT 24/19 A3001 RMK A01 T02380192  RH  075%=      5-min Rain = 0
KPD3 130534Z 03014KT 24/19 A3001 RMK A01 T02380192  RH  075%=      5-min Rain = 0
KPD3 130535Z 03012KT 24/19 A3001 RMK A01 T02390192  RH  075%=      5-min Rain = 0
KPD3 130536Z 04013KT 24/19 A3001 RMK A01 T02390192  RH  075%=      5-min Rain = 0
KPD3 130537Z 04015KT 24/19 A3001 RMK A01 T02390192  RH  075%=      5-min Rain = 0
KPD3 130538Z 04014KT 24/19 A3001 RMK A01 T02390191  RH  075%=      5-min Rain = 0
KPD3 130539Z 05012G17KT 24/19 A3001 RMK A01 T02390191  RH  075%=      5-min Rain = 0
KPD3 130540Z 04014KT 24/19 A3001 RMK A01 T02390191  RH  075%=      5-min Rain = 0
KPD3 130541Z 04014KT 24/19 A3001 RMK A01 T02390192  RH  075%=      5-min Rain = 0
KPD3 130542Z 04014KT 24/19 A3001 RMK A01 T02390191  RH  074%=      5-min Rain = 0
KPD3 130543Z 03012KT 24/19 A3001 RMK A01 T02390191  RH  074%=      5-min Rain = 0
KPD3 130544Z 04014KT 24/19 A3001 RMK A01 T02390191  RH  075%=      5-min Rain = 0
KPD3 130545Z 04011KT 24/19 A3001 RMK A01 T02390191  RH  074%=      5-min Rain = 0
KPD3 130546Z 04011KT 24/19 A3001 RMK A01 T02390191  RH  075%=      5-min Rain = 0
KPD3 130547Z 03010G16KT 24/19 A3001 RMK A01 T02390191  RH  075%=      5-min Rain = 0
KPD3 130548Z 04011KT 24/19 A3001 RMK A01 T02390191  RH  074%=      5-min Rain = 0
KPD3 130549Z 04011KT 24/19 A3001 RMK A01 T02390191  RH  075%=      5-min Rain = 0
KPD3 130550Z 04012KT 24/19 A3001 RMK A01 T02390191  RH  075%=      5-min Rain = 0
KPD3 130551Z 05015G20KT 24/19 A3001 RMK A01 T02390192  RH  075%=      5-min Rain = 0
KPD3 130552Z 04016KT 24/19 A3001 RMK A01 T02390191  RH  075%=      5-min Rain = 0
KPD3 130553Z 05013KT 24/19 A3001 RMK A01 T02390191  RH  075%=      5-min Rain = 0
KPD3 130554Z 05016G21KT 24/19 A3001 RMK A01 T02390191  RH  075%=      5-min Rain = 0
KPD3 130555Z 05014G19KT 24/19 A3001 RMK A01 T02390191  RH  075%=      5-min Rain = 0
KPD3 130556Z 05016KT 24/19 A3001 RMK A01 T02390191  RH  075%=      5-min Rain = 0
KPD3 130557Z 05012KT 24/19 A3001 RMK A01 T02390191  RH  075%=      5-min Rain = 0
KPD3 130558Z 05015G20KT 24/19 A3001 RMK A01 T02390191  RH  075%=      5-min Rain = 0
KPD3 130559Z 05015G20KT 24/19 A3001 RMK A01 T02390191  RH  075%=      5-min Rain = 0
KPD3 130600Z 05014KT 24/19 A3001 RMK A01 T02390191  RH  075%=      5-min Rain = 0
KPD3 130601Z 05015KT 24/19 A3001 RMK A01 T02390191  RH  075%=      5-min Rain = 0
KPD3 130602Z 05015KT 24/19 A30 RMK A01 T02400192  RH  075%=      5-min Rain = 0
KPD3 130603Z 06014KT 24/19 A30 RMK A01 T02390191  RH  075%=      5-min Rain = 0
KPD3 130604Z 05014KT 24/19 A30 RMK A01 T02390191  RH  075%=      5-min Rain = 0
KPD3 130605Z 05017KT 24/19 A30 RMK A01 T02390191  RH  074%=      5-min Rain = 0
KPD3 130606Z 06016KT 24/19 A30 RMK A01 T02390191  RH  074%=      5-min Rain = 0
KPD3 130607Z 04014KT 24/19 A30 RMK A01 T02390191  RH  074%=      5-min Rain = 0
KPD3 130608Z 05015KT 24/19 A30 RMK A01 T02390191  RH  075%=      5-min Rain = 0
KPD3 130609Z 05017KT 24/19 A30 RMK A01 T02390192  RH  075%=      5-min Rain = 0
KPD3 130610Z 05015KT 24/19 A30 RMK A01 T02390192  RH  075%=      5-min Rain = 0
KPD3 130611Z 05015KT 24/19 A30 RMK A01 T02390192  RH  075%=      5-min Rain = 0
KPD3 130612Z 05014KT 24/19 A30 RMK A01 T02380192  RH  075%=      5-min Rain = 0
KPD3 130613Z 05016KT 24/19 A30 RMK A01 T02380192  RH  075%=      5-min Rain = 0
KPD3 130614Z 05013KT 24/19 A30 RMK A01 T02380192  RH  075%=      5-min Rain = 0
KPD3 130615Z 06011KT 24/19 A30 RMK A01 T02380192  RH  076%=      5-min Rain = 0
KPD3 130616Z 06009KT 24/19 A30 RMK A01 T02370192  RH  076%=      5-min Rain = 0
KPD3 130617Z 05014KT 24/19 A30 RMK A01 T02370193  RH  076%=      5-min Rain = 0
KPD3 130618Z 05014KT 24/19 A2999 RMK A01 T02370193  RH  076%=      5-min Rain = 0
KPD3 130619Z 06014KT 24/19 A2999 RMK A01 T02370193  RH  076%=      5-min Rain = 0
KPD3 130620Z 06012KT 24/19 A2999 RMK A01 T02370193  RH  076%=      5-min Rain = 0
KPD3 130621Z 06013KT 24/19 A2999 RMK A01 T02380193  RH  076%=      5-min Rain = 0
KPD3 130622Z 06009KT 24/19 A2999 RMK A01 T02380194  RH  076%=      5-min Rain = 0
KPD3 130623Z 06010KT 24/19 A2999 RMK A01 T02370193  RH  076%=      5-min Rain = 0
KPD3 130624Z 06011KT 24/19 A2999 RMK A01 T02370193  RH  076%=      5-min Rain = 0
KPD3 130625Z 06011KT 24/19 A2999 RMK A01 T02370192  RH  076%=      5-min Rain = 0
KPD3 130626Z 05009G14KT 24/19 A2999 RMK A01 T02370193  RH  076%=      5-min Rain = 0
KPD3 130627Z 06011KT 24/19 A2999 RMK A01 T02380193  RH  076%=      5-min Rain = 0
KPD3 130628Z 06010KT 24/19 A2999 RMK A01 T02390193  RH  075%=      5-min Rain = 0
KPD3 130629Z 06010KT 24/19 A2999 RMK A01 T02390192  RH  075%=      5-min Rain = 0
KPD3 130630Z 06008G15KT 24/19 A2999 RMK A01 T02390192  RH  075%=      5-min Rain = 0
KPD3 130631Z 06012KT 24/19 A2999 RMK A01 T02390191  RH  075%=      5-min Rain = 0
KPD3 130632Z 07010KT 24/19 A2999 RMK A01 T02400191  RH  074%=      5-min Rain = 0
KPD3 130633Z 07011KT 24/19 A2999 RMK A01 T02410191  RH  074%=      5-min Rain = 0
KPD3 130634Z 06011KT 24/19 A2999 RMK A01 T02420191  RH  073%=      5-min Rain = 0
KPD3 130635Z 06009KT 24/19 A2999 RMK A01 T02420191  RH  073%=      5-min Rain = 0
KPD3 130636Z 06010KT 24/19 A2999 RMK A01 T02420191  RH  073%=      5-min Rain = 0
KPD3 130637Z 06009KT 24/19 A2999 RMK A01 T02420191  RH  073%=      5-min Rain = 0
KPD3 130638Z 07010KT 24/19 A2999 RMK A01 T02420191  RH  073%=      5-min Rain = 0
KPD3 130639Z 07010KT 24/19 A2999 RMK A01 T02420191  RH  073%=      5-min Rain = 0
KPD3 130640Z 06011KT 24/19 A2999 RMK A01 T02430191  RH  073%=      5-min Rain = 0
KPD3 130641Z 07011KT 24/19 A2999 RMK A01 T02430191  RH  073%=      5-min Rain = 0
KPD3 130642Z 07010KT 24/19 A2999 RMK A01 T02430190  RH  072%=      5-min Rain = 0
KPD3 130643Z 07012KT 24/19 A2999 RMK A01 T02430191  RH  072%=      5-min Rain = 0
KPD3 130644Z 07010KT 24/19 A2999 RMK A01 T02430191  RH  072%=      5-min Rain = 0
KPD3 130645Z 07010KT 24/19 A2999 RMK A01 T02430190  RH  072%=      5-min Rain = 0
KPD3 130646Z 06010KT 24/19 A2999 RMK A01 T02440191  RH  072%=      5-min Rain = 0
KPD3 130647Z 07011KT 24/19 A2999 RMK A01 T02440191  RH  072%=      5-min Rain = 0
KPD3 130648Z 06011KT 24/19 A2999 RMK A01 T02440191  RH  072%=      5-min Rain = 0
KPD3 130649Z 06010KT 24/19 A2999 RMK A01 T02440191  RH  072%=      5-min Rain = 0
KPD3 130650Z 06010KT 24/19 A2999 RMK A01 T02440191  RH  072%=      5-min Rain = 0
KPD3 130651Z 06009KT 24/19 A2999 RMK A01 T02440191  RH  073%=      5-min Rain = 0
KPD3 130652Z 06009KT 24/19 A2999 RMK A01 T02430192  RH  073%=      5-min Rain = 0
KPD3 130653Z 07008KT 24/19 A2999 RMK A01 T02430191  RH  073%=      5-min Rain = 0
KPD3 130654Z 06007KT 24/19 A2999 RMK A01 T02430191  RH  073%=      5-min Rain = 0
KPD3 130655Z 07008KT 24/19 A2999 RMK A01 T02420191  RH  073%=      5-min Rain = 0
KPD3 130656Z 07007KT 24/19 A2999 RMK A01 T02430191  RH  073%=      5-min Rain = 0
KPD3 130657Z 07008KT 24/19 A2999 RMK A01 T02420191  RH  073%=      5-min Rain = 0
KPD3 130658Z 08009KT 24/19 A2999 RMK A01 T02430191  RH  073%=      5-min Rain = 0
KPD3 130659Z 07010KT 24/19 A2999 RMK A01 T02430190  RH  072%=      5-min Rain = 0
KPD3 130700Z 08012KT 24/19 A2999 RMK A01 T02440190  RH  072%=      5-min Rain = 0
KPD3 130701Z 07008KT 25/19 A2999 RMK A01 T02460190  RH  071%=      5-min Rain = 0
KPD3 130702Z 07009KT 25/19 A2999 RMK A01 T02460190  RH  071%=      5-min Rain = 0
KPD3 130703Z 06008KT 25/19 A2999 RMK A01 T02460190  RH  071%=      5-min Rain = 0
KPD3 130704Z 07009KT 25/19 A2999 RMK A01 T02460191  RH  071%=      5-min Rain = 0
KPD3 130705Z 06009KT 25/19 A2999 RMK A01 T02450191  RH  072%=      5-min Rain = 0
KPD3 130706Z 07010KT 25/19 A2999 RMK A01 T02450191  RH  072%=      5-min Rain = 0
KPD3 130707Z 06009KT 25/19 A2999 RMK A01 T02450191  RH  072%=      5-min Rain = 0
KPD3 130708Z 06008KT 25/19 A2999 RMK A01 T02450191  RH  072%=      5-min Rain = 0
KPD3 130709Z 06009KT 25/19 A2999 RMK A01 T02450191  RH  072%=      5-min Rain = 0
KPD3 130710Z 05010KT 24/19 A2999 RMK A01 T02440192  RH  072%=      5-min Rain = 0
KPD3 130711Z 05010KT 24/19 A2999 RMK A01 T02440192  RH  073%=      5-min Rain = 0
KPD3 130712Z 05010KT 24/19 A2999 RMK A01 T02440192  RH  073%=      5-min Rain = 0
KPD3 130713Z 04008KT 24/19 A2999 RMK A01 T02430193  RH  074%=      5-min Rain = 0
KPD3 130714Z 04007KT 24/19 A2999 RMK A01 T02420193  RH  074%=      5-min Rain = 0
KPD3 130715Z 05009KT 24/19 A2999 RMK A01 T02420193  RH  074%=      5-min Rain = 0
KPD3 130716Z 04009KT 24/19 A2999 RMK A01 T02410194  RH  075%=      5-min Rain = 0
KPD3 130717Z 05008KT 24/19 A2999 RMK A01 T02400194  RH  076%=      5-min Rain = 0
KPD3 130718Z 05008KT 24/19 A2999 RMK A01 T02390194  RH  076%=      5-min Rain = 0
KPD3 130719Z 05007KT 24/20 A2999 RMK A01 T02380195  RH  077%=      5-min Rain = 0
KPD3 130720Z 05011KT 24/20 A2999 RMK A01 T02380195  RH  077%=      5-min Rain = 0
KPD3 130721Z 05008KT 24/20 A2999 RMK A01 T02380196  RH  077%=      5-min Rain = 0
KPD3 130722Z 04006KT 24/20 A2999 RMK A01 T02370196  RH  078%=      5-min Rain = 0
KPD3 130723Z 05009KT 24/20 A2999 RMK A01 T02360196  RH  078%=      5-min Rain = 0
KPD3 130724Z 06008KT 24/20 A2999 RMK A01 T02350196  RH  078%=      5-min Rain = 0
KPD3 130725Z 05008KT 24/20 A2999 RMK A01 T02350196  RH  079%=      5-min Rain = 0
KPD3 130726Z 05008KT 24/20 A2999 RMK A01 T02350197  RH  079%=      5-min Rain = 0
KPD3 130727Z 05008KT 23/20 A2999 RMK A01 T02340197  RH  079%=      5-min Rain = 0
KPD3 130728Z 06008KT 23/20 A2999 RMK A01 T02340197  RH  080%=      5-min Rain = 0
KPD3 130729Z 05008KT 23/20 A30 RMK A01 T02340197  RH  080%=      5-min Rain = 0
KPD3 130730Z 05009KT 23/20 A30 RMK A01 T02330197  RH  080%=      5-min Rain = 0
KPD3 130731Z 06008KT 23/20 A30 RMK A01 T02330197  RH  080%=      5-min Rain = 0
KPD3 130732Z 05007KT 23/20 A30 RMK A01 T02330198  RH  081%=      5-min Rain = 0
KPD3 130733Z 05011KT 23/20 A30 RMK A01 T02320198  RH  081%=      5-min Rain = 0
KPD3 130734Z 06010KT 23/20 A30 RMK A01 T02320198  RH  081%=      5-min Rain = 0
KPD3 130735Z 06009KT 23/20 A30 RMK A01 T02320198  RH  081%=      5-min Rain = 0
KPD3 130736Z 06007KT 23/20 A30 RMK A01 T02320198  RH  081%=      5-min Rain = 0
KPD3 130737Z 07008KT 23/20 A30 RMK A01 T02320198  RH  081%=      5-min Rain = 0
KPD3 130738Z 08010KT 23/20 A2999 RMK A01 T02320197  RH  081%=      5-min Rain = 0
KPD3 130739Z 08007KT 23/20 A2999 RMK A01 T02320198  RH  081%=      5-min Rain = 0
KPD3 130740Z 08006KT 23/20 A2999 RMK A01 T02320198  RH  081%=      5-min Rain = 0
KPD3 130741Z 09008KT 23/20 A2999 RMK A01 T02320198  RH  081%=      5-min Rain = 0
KPD3 130742Z 09008KT 23/20 A2999 RMK A01 T02320198  RH  081%=      5-min Rain = 0
KPD3 130743Z 09010G15KT 23/20 A2998 RMK A01 T02320197  RH  081%=      5-min Rain = 0
KPD3 130744Z 09011KT 23/20 A2998 RMK A01 T02320197  RH  081%=      5-min Rain = 0
KPD3 130745Z 09011KT 23/20 A2998 RMK A01 T02320197  RH  081%=      5-min Rain = 0
KPD3 130746Z 09013KT 23/20 A2998 RMK A01 T02320197  RH  081%=      5-min Rain = 0
KPD3 130747Z 09015KT 23/20 A2998 RMK A01 T02330197  RH  080%=      5-min Rain = 0
KPD3 130748Z 09013KT 23/20 A2998 RMK A01 T02330197  RH  080%=      5-min Rain = 0
KPD3 130749Z 09013KT 23/20 A2997 RMK A01 T02330197  RH  080%=      5-min Rain = 0
KPD3 130750Z 09012KT 23/20 A2997 RMK A01 T02330197  RH  080%=      5-min Rain = 0
KPD3 130751Z 09012KT 23/20 A2997 RMK A01 T02330197  RH  080%=      5-min Rain = 0
KPD3 130752Z 09012KT 23/20 A2997 RMK A01 T02340197  RH  080%=      5-min Rain = 0
KPD3 130753Z 09011KT 23/20 A2997 RMK A01 T02330197  RH  080%=      5-min Rain = 0
KPD3 130754Z 09012KT 23/20 A2997 RMK A01 T02330197  RH  080%=      5-min Rain = 0
KPD3 130755Z 09013KT 23/20 A2997 RMK A01 T02330197  RH  080%=      5-min Rain = 0
KPD3 130756Z 09014KT 23/20 A2997 RMK A01 T02330198  RH  081%=      5-min Rain = 0
KPD3 130757Z 09014KT 23/20 A2997 RMK A01 T02330198  RH  081%=      5-min Rain = 0
KPD3 130758Z 09013KT 23/20 A2997 RMK A01 T02330198  RH  081%=      5-min Rain = 0
KPD3 130759Z 09013KT 23/20 A2997 RMK A01 T02320198  RH  081%=      5-min Rain = 0
KPD3 130800Z 09012KT 23/20 A2997 RMK A01 T02330198  RH  081%=      5-min Rain = 0
KPD3 130801Z 09014KT 23/20 A2997 RMK A01 T02320198  RH  081%=      5-min Rain = 0
KPD3 130802Z 09011G16KT 23/20 A2997 RMK A01 T02320197  RH  081%=      5-min Rain = 0
KPD3 130803Z 09011KT 23/20 A2997 RMK A01 T02330197  RH  081%=      5-min Rain = 0
KPD3 130804Z 09011KT 23/20 A2997 RMK A01 T02330197  RH  080%=      5-min Rain = 0
KPD3 130805Z 09010KT 23/20 A2998 RMK A01 T02330198  RH  080%=      5-min Rain = 0
KPD3 130806Z 09010KT 23/20 A2998 RMK A01 T02330198  RH  080%=      5-min Rain = 0
KPD3 130807Z 09009G14KT 23/20 A2998 RMK A01 T02330197  RH  080%=      5-min Rain = 0
KPD3 130808Z 10009KT 23/20 A2998 RMK A01 T02340198  RH  080%=      5-min Rain = 0
KPD3 130809Z 09009KT 23/20 A2998 RMK A01 T02340198  RH  080%=      5-min Rain = 0
KPD3 130810Z 08010KT 23/20 A2998 RMK A01 T02340199  RH  081%=      5-min Rain = 0
KPD3 130811Z 08010KT 23/20 A2998 RMK A01 T02340200  RH  081%=      5-min Rain = 0
KPD3 130812Z 08010KT 23/20 A2998 RMK A01 T02330201  RH  082%=      5-min Rain = 0
KPD3 130813Z 07009KT 23/20 A2999 RMK A01 T02320202  RH  083%=      5-min Rain = 0
KPD3 130814Z 08009KT 23/20 A2999 RMK A01 T02310201  RH  083%=      5-min Rain = 0
KPD3 130815Z 07007KT 23/20 A2999 RMK A01 T02300201  RH  083%=      5-min Rain = 0
KPD3 130816Z 06007KT 23/20 A2999 RMK A01 T02300201  RH  084%=      5-min Rain = 0
KPD3 130817Z 06005KT 23/20 A2999 RMK A01 T02300202  RH  084%=      5-min Rain = 0
KPD3 130818Z 06006KT 23/20 A2999 RMK A01 T02300203  RH  085%=      5-min Rain = 0
KPD3 130819Z 06007KT 23/20 A2999 RMK A01 T02290203  RH  085%=      5-min Rain = 0
KPD3 130820Z 06005KT 23/20 A2999 RMK A01 T02290202  RH  085%=      5-min Rain = 0
KPD3 130821Z 07006KT 23/20 A2999 RMK A01 T02290203  RH  085%=      5-min Rain = 0
KPD3 130822Z 06005KT 23/20 A2999 RMK A01 T02290202  RH  085%=      5-min Rain = 0
KPD3 130823Z 06005KT 23/20 A2999 RMK A01 T02290202  RH  085%=      5-min Rain = 0
KPD3 130824Z 07004KT 23/20 A2999 RMK A01 T02300203  RH  085%=      5-min Rain = 0
KPD3 130825Z 08005KT 23/20 A2999 RMK A01 T02300203  RH  085%=      5-min Rain = 0
KPD3 130826Z 07006KT 23/20 A2999 RMK A01 T02290203  RH  085%=      5-min Rain = 0
KPD3 130827Z 07006KT 23/20 A2999 RMK A01 T02290203  RH  085%=      5-min Rain = 0
KPD3 130828Z 06005KT 23/20 A2999 RMK A01 T02290203  RH  085%=      5-min Rain = 0
KPD3 130829Z 07004KT 23/20 A2999 RMK A01 T02290204  RH  085%=      5-min Rain = 0
KPD3 130830Z 06004KT 23/20 A2999 RMK A01 T02290204  RH  086%=      5-min Rain = 0
KPD3 130831Z 05004KT 23/20 A2999 RMK A01 T02290204  RH  086%=      5-min Rain = 0
KPD3 130832Z 04003KT 23/21 A30 RMK A01 T02290205  RH  086%=      5-min Rain = 0
KPD3 130833Z 04003KT 23/21 A30 RMK A01 T02290205  RH  086%=      5-min Rain = 0
KPD3 130834Z 04003KT 23/20 A30 RMK A01 T02290204  RH  086%=      5-min Rain = 0
KPD3 130835Z 04003KT 23/20 A30 RMK A01 T02290203  RH  085%=      5-min Rain = 0
KPD3 130836Z 01002KT 23/20 A30 RMK A01 T02290203  RH  085%=      5-min Rain = 0
KPD3 130837Z 02004KT 23/20 A30 RMK A01 T02300203  RH  085%=      5-min Rain = 0
KPD3 130838Z 04004KT 23/20 A30 RMK A01 T02300203  RH  085%=      5-min Rain = 0
KPD3 130839Z 04005KT 23/20 A30 RMK A01 T02300202  RH  084%=      5-min Rain = 0
KPD3 130840Z 06005KT 23/20 A30 RMK A01 T02310201  RH  083%=      5-min Rain = 0
KPD3 130841Z 06005KT 23/20 A2999 RMK A01 T02320202  RH  083%=      5-min Rain = 0
KPD3 130842Z 06007KT 23/20 A2999 RMK A01 T02320200  RH  082%=      5-min Rain = 0
KPD3 130843Z 07010KT 23/20 A2999 RMK A01 T02330200  RH  081%=      5-min Rain = 0
KPD3 130844Z 08009KT 23/20 A2999 RMK A01 T02340199  RH  081%=      5-min Rain = 0
KPD3 130845Z 08010KT 24/20 A2999 RMK A01 T02350199  RH  081%=      5-min Rain = 0
KPD3 130846Z 08008KT 24/20 A2999 RMK A01 T02350199  RH  080%=      5-min Rain = 0
KPD3 130847Z 08009KT 24/20 A2999 RMK A01 T02350200  RH  081%=      5-min Rain = 0
KPD3 130848Z 09008KT 24/20 A2999 RMK A01 T02350200  RH  081%=      5-min Rain = 0
KPD3 130849Z 09008KT 23/20 A2999 RMK A01 T02340200  RH  081%=      5-min Rain = 0
KPD3 130850Z 09008KT 23/20 A2999 RMK A01 T02340201  RH  082%=      5-min Rain = 0.02
KPD3 130851Z 10008KT 23/20 A2999 RMK A01 T02330202  RH  083%=      5-min Rain = 0.01
KPD3 130852Z 10007KT 23/20 A2999 RMK A01 T02310202  RH  084%=      5-min Rain = 0
KPD3 130853Z 09008KT 23/20 A2999 RMK A01 T02290202  RH  085%=      5-min Rain = 0.01
KPD3 130854Z 09007KT 23/20 A2999 RMK A01 T02270202  RH  085%=      5-min Rain = 0
KPD3 130855Z 10008KT 23/20 A2999 RMK A01 T02270202  RH  086%=      5-min Rain = 0
KPD3 130856Z 10008KT 23/20 A2999 RMK A01 T02260202  RH  086%=      5-min Rain = 0
KPD3 130857Z 09008KT 23/20 A2999 RMK A01 T02260203  RH  087%=      5-min Rain = 0
KPD3 130858Z 10007KT 23/20 A2999 RMK A01 T02260203  RH  087%=      5-min Rain = 0
KPD3 130859Z 10008KT 23/20 A2999 RMK A01 T02250202  RH  087%=      5-min Rain = 0
KPD3 130900Z 10008KT 23/20 A2999 RMK A01 T02250201  RH  086%=      5-min Rain = 0
KPD3 130901Z 09009KT 23/20 A2999 RMK A01 T02260200  RH  086%=      5-min Rain = 0
KPD3 130902Z 10010KT 23/20 A2999 RMK A01 T02260201  RH  086%=      5-min Rain = 0
KPD3 130903Z 10009KT 23/20 A2999 RMK A01 T02270201  RH  085%=      5-min Rain = 0
KPD3 130904Z 09009KT 23/20 A2999 RMK A01 T02260202  RH  086%=      5-min Rain = 0
KPD3 130905Z 10008KT 23/20 A2999 RMK A01 T02250203  RH  087%=      5-min Rain = 0.01
KPD3 130906Z 11008KT 23/20 A2998 RMK A01 T02250202  RH  087%=      5-min Rain = 0
KPD3 130907Z 11008KT 22/20 A2998 RMK A01 T02240202  RH  087%=      5-min Rain = 0
KPD3 130908Z 11008KT 22/20 A2998 RMK A01 T02240201  RH  087%=      5-min Rain = 0
KPD3 130909Z 12008KT 22/20 A2998 RMK A01 T02240202  RH  087%=      5-min Rain = 0
KPD3 130910Z 13007KT 22/20 A2998 RMK A01 T02240203  RH  088%=      5-min Rain = 0
KPD3 130911Z 14008KT 22/20 A2998 RMK A01 T02230203  RH  089%=      5-min Rain = 0
KPD3 130912Z 14008KT 22/20 A2998 RMK A01 T02220202  RH  088%=      5-min Rain = 0
KPD3 130913Z 14007KT 22/20 A2998 RMK A01 T02230202  RH  088%=      5-min Rain = 0
KPD3 130914Z 14008KT 22/20 A2998 RMK A01 T02230202  RH  088%=      5-min Rain = 0
KPD3 130915Z 15008KT 22/20 A2998 RMK A01 T02230202  RH  088%=      5-min Rain = 0
KPD3 130916Z 14008KT 22/20 A2998 RMK A01 T02220203  RH  089%=      5-min Rain = 0
KPD3 130917Z 15007KT 22/20 A2998 RMK A01 T02220203  RH  089%=      5-min Rain = 0
KPD3 130918Z 14008KT 22/20 A2998 RMK A01 T02210202  RH  089%=      5-min Rain = 0
KPD3 130919Z 15007KT 22/20 A2998 RMK A01 T02210202  RH  089%=      5-min Rain = 0
KPD3 130920Z 16008KT 22/20 A2998 RMK A01 T02210202  RH  089%=      5-min Rain = 0
KPD3 130921Z 16006KT 22/20 A2998 RMK A01 T02210202  RH  089%=      5-min Rain = 0
KPD3 130922Z 16006KT 22/20 A2998 RMK A01 T02210202  RH  089%=      5-min Rain = 0
KPD3 130923Z 16005KT 22/20 A2998 RMK A01 T02210202  RH  089%=      5-min Rain = 0
KPD3 130924Z 16005KT 22/20 A2998 RMK A01 T02210202  RH  089%=      5-min Rain = 0
KPD3 130925Z 16005KT 22/20 A2998 RMK A01 T02220202  RH  088%=      5-min Rain = 0
KPD3 130926Z 17007KT 22/20 A2998 RMK A01 T02210201  RH  088%=      5-min Rain = 0
KPD3 130927Z 16006KT 22/20 A2998 RMK A01 T02220201  RH  088%=      5-min Rain = 0
KPD3 130928Z 17006KT 22/20 A2998 RMK A01 T02220201  RH  088%=      5-min Rain = 0
KPD3 130929Z 18007KT 22/20 A2998 RMK A01 T02220202  RH  088%=      5-min Rain = 0
KPD3 130930Z 18007KT 22/20 A2998 RMK A01 T02220202  RH  088%=      5-min Rain = 0
KPD3 130931Z 17007KT 22/20 A2998 RMK A01 T02220201  RH  088%=      5-min Rain = 0
KPD3 130932Z 17007KT 22/20 A2998 RMK A01 T02220201  RH  088%=      5-min Rain = 0
KPD3 130933Z 16007KT 22/20 A2998 RMK A01 T02220201  RH  088%=      5-min Rain = 0
KPD3 130934Z 17007KT 22/20 A2998 RMK A01 T02220200  RH  088%=      5-min Rain = 0
KPD3 130935Z 17007KT 22/20 A2998 RMK A01 T02220201  RH  088%=      5-min Rain = 0
KPD3 130936Z 17007KT 22/20 A2998 RMK A01 T02220201  RH  088%=      5-min Rain = 0
KPD3 130937Z 17007KT 22/20 A2998 RMK A01 T02220202  RH  088%=      5-min Rain = 0
KPD3 130938Z 17007KT 22/20 A2998 RMK A01 T02220202  RH  088%=      5-min Rain = 0
KPD3 130939Z 17007KT 22/20 A2998 RMK A01 T02220202  RH  089%=      5-min Rain = 0
KPD3 130940Z 17006KT 22/20 A2998 RMK A01 T02210202  RH  089%=      5-min Rain = 0
KPD3 130941Z 18007KT 22/20 A2998 RMK A01 T02210201  RH  089%=      5-min Rain = 0
KPD3 130942Z 17007KT 22/20 A2998 RMK A01 T02210201  RH  089%=      5-min Rain = 0
KPD3 130943Z 18006KT 22/20 A2998 RMK A01 T02210201  RH  089%=      5-min Rain = 0
KPD3 130944Z 18006KT 22/20 A2998 RMK A01 T02210201  RH  088%=      5-min Rain = 0
KPD3 130945Z 17006KT 22/20 A2998 RMK A01 T02220201  RH  088%=      5-min Rain = 0
KPD3 130946Z 18006KT 22/20 A2998 RMK A01 T02220201  RH  088%=      5-min Rain = 0
KPD3 130947Z 17006KT 22/20 A2998 RMK A01 T02220201  RH  088%=      5-min Rain = 0
KPD3 130948Z 18006KT 22/20 A2998 RMK A01 T02220201  RH  088%=      5-min Rain = 0
KPD3 130949Z 18006KT 22/20 A2998 RMK A01 T02220201  RH  088%=      5-min Rain = 0
KPD3 130950Z 18006KT 22/20 A2998 RMK A01 T02220200  RH  088%=      5-min Rain = 0
KPD3 130951Z 18006KT 22/20 A2998 RMK A01 T02220200  RH  087%=      5-min Rain = 0
KPD3 130952Z 17006KT 22/20 A2998 RMK A01 T02220200  RH  087%=      5-min Rain = 0
KPD3 130953Z 17005KT 22/20 A2998 RMK A01 T02220200  RH  087%=      5-min Rain = 0
KPD3 130954Z 17006KT 22/20 A2998 RMK A01 T02220200  RH  087%=      5-min Rain = 0
KPD3 130955Z 18006KT 22/20 A2998 RMK A01 T02220199  RH  087%=      5-min Rain = 0
KPD3 130956Z 17006KT 22/20 A2998 RMK A01 T02220199  RH  087%=      5-min Rain = 0
KPD3 130957Z 17006KT 22/20 A2998 RMK A01 T02230199  RH  086%=      5-min Rain = 0
KPD3 130958Z 18005KT 22/20 A2998 RMK A01 T02230199  RH  086%=      5-min Rain = 0
KPD3 130959Z 18006KT 22/20 A2998 RMK A01 T02230199  RH  086%=      5-min Rain = 0
KPD3 131000Z 18006KT 22/20 A2998 RMK A01 T02230199  RH  086%=      5-min Rain = 0
KPD3 131001Z 18007KT 22/20 A2998 RMK A01 T02230199  RH  086%=      5-min Rain = 0
KPD3 131002Z 18007KT 22/20 A2998 RMK A01 T02220199  RH  086%=      5-min Rain = 0
KPD3 131003Z 18006KT 22/20 A2998 RMK A01 T02220198  RH  086%=      5-min Rain = 0
KPD3 131004Z 18006KT 22/20 A2998 RMK A01 T02220198  RH  086%=      5-min Rain = 0
KPD3 131005Z 18006KT 22/20 A2998 RMK A01 T02220198  RH  086%=      5-min Rain = 0
KPD3 131006Z 19005KT 22/20 A2998 RMK A01 T02220198  RH  086%=      5-min Rain = 0
KPD3 131007Z 19005KT 22/20 A2998 RMK A01 T02220198  RH  086%=      5-min Rain = 0
KPD3 131008Z 19005KT 22/20 A2999 RMK A01 T02220199  RH  086%=      5-min Rain = 0
KPD3 131009Z 20004KT 22/20 A2999 RMK A01 T02220199  RH  087%=      5-min Rain = 0
KPD3 131010Z 20004KT 22/20 A2999 RMK A01 T02210199  RH  087%=      5-min Rain = 0
KPD3 131011Z 20004KT 22/20 A2999 RMK A01 T02210198  RH  087%=      5-min Rain = 0
KPD3 131012Z 21004KT 22/20 A2999 RMK A01 T02210199  RH  087%=      5-min Rain = 0
KPD3 131013Z 21005KT 22/20 A2999 RMK A01 T02200199  RH  088%=      5-min Rain = 0
KPD3 131014Z 21005KT 22/20 A2999 RMK A01 T02200199  RH  088%=      5-min Rain = 0
KPD3 131015Z 21005KT 22/20 A2999 RMK A01 T02190199  RH  088%=      5-min Rain = 0
KPD3 131016Z 21005KT 22/20 A2999 RMK A01 T02190198  RH  088%=      5-min Rain = 0
KPD3 131017Z 21005KT 22/20 A2999 RMK A01 T02190198  RH  088%=      5-min Rain = 0
KPD3 131018Z 21005KT 22/20 A2999 RMK A01 T02180198  RH  088%=      5-min Rain = 0
KPD3 131019Z 21004KT 22/20 A2999 RMK A01 T02180197  RH  088%=      5-min Rain = 0
KPD3 131020Z 22005KT 22/20 A2999 RMK A01 T02180197  RH  088%=      5-min Rain = 0
KPD3 131021Z 22005KT 22/20 A2999 RMK A01 T02180197  RH  088%=      5-min Rain = 0
KPD3 131022Z 22005KT 22/20 A2999 RMK A01 T02180198  RH  088%=      5-min Rain = 0
KPD3 131023Z 22005KT 22/20 A2999 RMK A01 T02180198  RH  088%=      5-min Rain = 0
KPD3 131024Z 22004KT 22/20 A2999 RMK A01 T02170197  RH  088%=      5-min Rain = 0
KPD3 131025Z 22004KT 22/20 A2999 RMK A01 T02170197  RH  088%=      5-min Rain = 0
KPD3 131026Z 22004KT 22/20 A2999 RMK A01 T02170197  RH  088%=      5-min Rain = 0
KPD3 131027Z 22005KT 22/20 A2999 RMK A01 T02170197  RH  088%=      5-min Rain = 0
KPD3 131028Z 22005KT 22/20 A2999 RMK A01 T02160196  RH  088%=      5-min Rain = 0
KPD3 131029Z 22005KT 22/20 A2999 RMK A01 T02160196  RH  089%=      5-min Rain = 0
KPD3 131030Z 22005KT 22/20 A2999 RMK A01 T02150195  RH  088%=      5-min Rain = 0
KPD3 131031Z 22005KT 22/20 A2999 RMK A01 T02150195  RH  089%=      5-min Rain = 0
KPD3 131032Z 22005KT 22/20 A2999 RMK A01 T02150195  RH  089%=      5-min Rain = 0
KPD3 131033Z 22006KT 21/20 A2999 RMK A01 T02140195  RH  089%=      5-min Rain = 0
KPD3 131034Z 22006KT 21/20 A2999 RMK A01 T02140195  RH  089%=      5-min Rain = 0
KPD3 131035Z 23006KT 21/20 A2999 RMK A01 T02140195  RH  089%=      5-min Rain = 0
KPD3 131036Z 23006KT 21/20 A2999 RMK A01 T02130195  RH  089%=      5-min Rain = 0
KPD3 131037Z 23006KT 21/20 A2999 RMK A01 T02130195  RH  089%=      5-min Rain = 0
KPD3 131038Z 23006KT 21/20 A2999 RMK A01 T02130195  RH  089%=      5-min Rain = 0
KPD3 131039Z 23006KT 21/20 A2999 RMK A01 T02130195  RH  090%=      5-min Rain = 0
KPD3 131040Z 23006KT 21/20 A2999 RMK A01 T02130195  RH  090%=      5-min Rain = 0
KPD3 131041Z 23006KT 21/20 A2999 RMK A01 T02130195  RH  090%=      5-min Rain = 0
KPD3 131042Z 23006KT 21/20 A2999 RMK A01 T02120195  RH  090%=      5-min Rain = 0
KPD3 131043Z 22006KT 21/20 A2999 RMK A01 T02120195  RH  090%=      5-min Rain = 0
KPD3 131044Z 22006KT 21/20 A2999 RMK A01 T02120195  RH  090%=      5-min Rain = 0
KPD3 131045Z 22006KT 21/20 A2999 RMK A01 T02120195  RH  090%=      5-min Rain = 0
KPD3 131046Z 22006KT 21/20 A2999 RMK A01 T02120195  RH  090%=      5-min Rain = 0
KPD3 131047Z 22007KT 21/20 A2999 RMK A01 T02120195  RH  090%=      5-min Rain = 0
KPD3 131048Z 22007KT 21/20 A2999 RMK A01 T02120195  RH  090%=      5-min Rain = 0
KPD3 131049Z 22007KT 21/20 A2999 RMK A01 T02120195  RH  090%=      5-min Rain = 0
KPD3 131050Z 22007KT 21/20 A2999 RMK A01 T02120195  RH  090%=      5-min Rain = 0
KPD3 131051Z 22006KT 21/20 A2999 RMK A01 T02120195  RH  090%=      5-min Rain = 0
KPD3 131052Z 22006KT 21/20 A2999 RMK A01 T02120195  RH  090%=      5-min Rain = 0
KPD3 131053Z 21007KT 21/20 A2999 RMK A01 T02120195  RH  090%=      5-min Rain = 0
KPD3 131054Z 22007KT 21/20 A2999 RMK A01 T02120195  RH  090%=      5-min Rain = 0
KPD3 131055Z 22006KT 21/20 A2999 RMK A01 T02120195  RH  090%=      5-min Rain = 0
KPD3 131056Z 22006KT 21/20 A2999 RMK A01 T02120195  RH  090%=      5-min Rain = 0
KPD3 131057Z 22006KT 21/20 A2999 RMK A01 T02120195  RH  090%=      5-min Rain = 0
KPD3 131058Z 22007KT 21/20 A2999 RMK A01 T02120195  RH  090%=      5-min Rain = 0
KPD3 131059Z 22007KT 21/19 A2999 RMK A01 T02120194  RH  090%=      5-min Rain = 0
KPD3 131100Z 22006KT 21/19 A30 RMK A01 T02120194  RH  090%=      5-min Rain = 0
KPD3 131101Z 21006KT 21/19 A30 RMK A01 T02120194  RH  089%=      5-min Rain = 0
KPD3 131102Z 21006KT 21/19 A30 RMK A01 T02120194  RH  089%=      5-min Rain = 0
KPD3 131103Z 21006KT 21/19 A30 RMK A01 T02130193  RH  089%=      5-min Rain = 0
KPD3 131104Z 21006KT 21/19 A30 RMK A01 T02130194  RH  089%=      5-min Rain = 0
KPD3 131105Z 21006KT 21/19 A30 RMK A01 T02130193  RH  089%=      5-min Rain = 0
KPD3 131106Z 21006KT 21/19 A30 RMK A01 T02130193  RH  089%=      5-min Rain = 0
KPD3 131107Z 21005KT 21/19 A30 RMK A01 T02120193  RH  089%=      5-min Rain = 0
KPD3 131108Z 21005KT 21/19 A30 RMK A01 T02120193  RH  089%=      5-min Rain = 0
KPD3 131109Z 22004KT 21/19 A30 RMK A01 T02120193  RH  089%=      5-min Rain = 0
KPD3 131110Z 22004KT 21/19 A30 RMK A01 T02120193  RH  089%=      5-min Rain = 0
KPD3 131111Z 23004KT 21/19 A30 RMK A01 T02120193  RH  089%=      5-min Rain = 0
KPD3 131112Z 23004KT 21/19 A30 RMK A01 T02120193  RH  089%=      5-min Rain = 0
KPD3 131113Z 23004KT 21/19 A30 RMK A01 T02120193  RH  089%=      5-min Rain = 0
KPD3 131114Z 23003KT 21/19 A30 RMK A01 T02120194  RH  089%=      5-min Rain = 0
KPD3 131115Z 25003KT 21/19 A3001 RMK A01 T02110194  RH  090%=      5-min Rain = 0
KPD3 131116Z 28002KT 21/19 A3001 RMK A01 T02110194  RH  090%=      5-min Rain = 0
KPD3 131117Z 02004KT 21/19 A3001 RMK A01 T02100194  RH  090%=      5-min Rain = 0
KPD3 131118Z 03006KT 21/19 A3001 RMK A01 T02090194  RH  091%=      5-min Rain = 0
KPD3 131119Z 02007KT 21/19 A3001 RMK A01 T02070193  RH  092%=      5-min Rain = 0
KPD3 131120Z 01007KT 21/19 A3001 RMK A01 T02060193  RH  092%=      5-min Rain = 0
KPD3 131121Z 01006KT 21/19 A3001 RMK A01 T02060193  RH  092%=      5-min Rain = 0
KPD3 131122Z 01006KT 21/19 A3001 RMK A01 T02070193  RH  092%=      5-min Rain = 0
KPD3 131123Z 01006KT 21/19 A3001 RMK A01 T02090193  RH  091%=      5-min Rain = 0
KPD3 131124Z 01006KT 21/19 A3001 RMK A01 T02100193  RH  090%=      5-min Rain = 0
KPD3 131125Z 02004KT 21/19 A3001 RMK A01 T02110192  RH  089%=      5-min Rain = 0
KPD3 131126Z 02003KT 21/19 A3001 RMK A01 T02120192  RH  089%=      5-min Rain = 0
KPD3 131127Z 01004KT 21/19 A3001 RMK A01 T02120193  RH  089%=      5-min Rain = 0
KPD3 131128Z 00004KT 21/19 A3001 RMK A01 T02120193  RH  089%=      5-min Rain = 0
KPD3 131129Z 36004KT 21/19 A3001 RMK A01 T02110193  RH  089%=      5-min Rain = 0
KPD3 131130Z 00005KT 21/19 A3001 RMK A01 T02110193  RH  089%=      5-min Rain = 0
KPD3 131131Z 36005KT 21/19 A3001 RMK A01 T02110193  RH  090%=      5-min Rain = 0
KPD3 131132Z 35006KT 21/19 A3001 RMK A01 T02100193  RH  090%=      5-min Rain = 0
KPD3 131133Z 36005KT 21/19 A3001 RMK A01 T02090193  RH  090%=      5-min Rain = 0
KPD3 131134Z 35005KT 21/19 A3002 RMK A01 T02090193  RH  090%=      5-min Rain = 0
KPD3 131135Z 35005KT 21/19 A3002 RMK A01 T02090193  RH  091%=      5-min Rain = 0
KPD3 131136Z 34005KT 21/19 A3002 RMK A01 T02090193  RH  091%=      5-min Rain = 0
KPD3 131137Z 34006KT 21/19 A3002 RMK A01 T02080193  RH  091%=      5-min Rain = 0
KPD3 131138Z 34006KT 21/19 A3002 RMK A01 T02080193  RH  091%=      5-min Rain = 0
KPD3 131139Z 34006KT 21/19 A3002 RMK A01 T02070193  RH  091%=      5-min Rain = 0
KPD3 131140Z 34005KT 21/19 A3002 RMK A01 T02070192  RH  091%=      5-min Rain = 0
KPD3 131141Z 34006KT 21/19 A3002 RMK A01 T02070193  RH  092%=      5-min Rain = 0
KPD3 131142Z 34006KT 21/19 A3002 RMK A01 T02070193  RH  092%=      5-min Rain = 0
KPD3 131143Z 34006KT 21/19 A3002 RMK A01 T02060192  RH  092%=      5-min Rain = 0
KPD3 131144Z 34006KT 21/19 A3002 RMK A01 T02060193  RH  092%=      5-min Rain = 0
KPD3 131145Z 34006KT 21/19 A3002 RMK A01 T02060193  RH  092%=      5-min Rain = 0
KPD3 131146Z 34006KT 21/19 A3002 RMK A01 T02060192  RH  092%=      5-min Rain = 0
KPD3 131147Z 34006KT 21/19 A3002 RMK A01 T02070193  RH  092%=      5-min Rain = 0
KPD3 131148Z 34006KT 21/19 A3002 RMK A01 T02070193  RH  092%=      5-min Rain = 0
KPD3 131149Z 34005KT 21/19 A3002 RMK A01 T02070194  RH  092%=      5-min Rain = 0
KPD3 131150Z 34005KT 21/19 A3002 RMK A01 T02080194  RH  092%=      5-min Rain = 0
KPD3 131151Z 34006KT 21/19 A3002 RMK A01 T02070194  RH  092%=      5-min Rain = 0
KPD3 131152Z 34006KT 21/19 A3002 RMK A01 T02080194  RH  092%=      5-min Rain = 0
KPD3 131153Z 35006KT 21/19 A3002 RMK A01 T02080194  RH  092%=      5-min Rain = 0
KPD3 131154Z 34006KT 21/19 A3002 RMK A01 T02080194  RH  092%=      5-min Rain = 0
KPD3 131155Z 34005KT 21/19 A3002 RMK A01 T02080194  RH  092%=      5-min Rain = 0
KPD3 131156Z 34005KT 21/19 A3002 RMK A01 T02080194  RH  092%=      5-min Rain = 0
KPD3 131157Z 34005KT 21/19 A3002 RMK A01 T02080194  RH  092%=      5-min Rain = 0
KPD3 131158Z 34005KT 21/19 A3002 RMK A01 T02080194  RH  092%=      5-min Rain = 0
KPD3 131159Z 34005KT 21/19 A3002 RMK A01 T02080194  RH  092%=      5-min Rain = 0
KPD3 131200Z 34005KT 21/20 A3002 RMK A01 T02080195  RH  092%=      5-min Rain = 0
KPD3 131201Z 34005KT 21/20 A3002 RMK A01 T02080195  RH  092%=      5-min Rain = 0
KPD3 131202Z 34005KT 21/19 A3002 RMK A01 T02070194  RH  092%=      5-min Rain = 0
KPD3 131203Z 33005KT 21/19 A3002 RMK A01 T02070194  RH  092%=      5-min Rain = 0
KPD3 131204Z 34005KT 21/20 A3002 RMK A01 T02080195  RH  092%=      5-min Rain = 0
KPD3 131205Z 34006KT 21/20 A3002 RMK A01 T02070195  RH  093%=      5-min Rain = 0
KPD3 131206Z 34005KT 21/20 A3002 RMK A01 T02070195  RH  093%=      5-min Rain = 0
KPD3 131207Z 34005KT 21/20 A3002 RMK A01 T02070195  RH  093%=      5-min Rain = 0
KPD3 131208Z 34005KT 21/20 A3002 RMK A01 T02070195  RH  093%=      5-min Rain = 0
KPD3 131209Z 34006KT 21/20 A3003 RMK A01 T02070195  RH  093%=      5-min Rain = 0
KPD3 131210Z 34006KT 21/20 A3003 RMK A01 T02070195  RH  093%=      5-min Rain = 0
KPD3 131211Z 33006KT 21/20 A3003 RMK A01 T02080196  RH  093%=      5-min Rain = 0
KPD3 131212Z 33006KT 21/20 A3003 RMK A01 T02080196  RH  093%=      5-min Rain = 0
KPD3 131213Z 33005KT 21/20 A3003 RMK A01 T02080196  RH  093%=      5-min Rain = 0
KPD3 131214Z 32005KT 21/20 A3003 RMK A01 T02080196  RH  093%=      5-min Rain = 0
KPD3 131215Z 32005KT 21/20 A3003 RMK A01 T02080196  RH  093%=      5-min Rain = 0
KPD3 131216Z 32005KT 21/20 A3003 RMK A01 T02080196  RH  093%=      5-min Rain = 0
KPD3 131217Z 33005KT 21/20 A3003 RMK A01 T02080196  RH  093%=      5-min Rain = 0
KPD3 131218Z 32005KT 21/20 A3003 RMK A01 T02080196  RH  093%=      5-min Rain = 0
KPD3 131219Z 32005KT 21/20 A3003 RMK A01 T02080197  RH  093%=      5-min Rain = 0
KPD3 131220Z 32005KT 21/20 A3003 RMK A01 T02080197  RH  093%=      5-min Rain = 0
KPD3 131221Z 32005KT 21/20 A3003 RMK A01 T02080196  RH  093%=      5-min Rain = 0
KPD3 131222Z 33005KT 21/20 A3003 RMK A01 T02080197  RH  093%=      5-min Rain = 0
KPD3 131223Z 32006KT 21/20 A3003 RMK A01 T02070197  RH  093%=      5-min Rain = 0
KPD3 131224Z 32006KT 21/20 A3003 RMK A01 T02070197  RH  093%=      5-min Rain = 0
KPD3 131225Z 32006KT 21/20 A3003 RMK A01 T02080197  RH  093%=      5-min Rain = 0
KPD3 131226Z 32005KT 21/20 A3003 RMK A01 T02080197  RH  093%=      5-min Rain = 0
KPD3 131227Z 31005KT 21/20 A3003 RMK A01 T02090197  RH  093%=      5-min Rain = 0
KPD3 131228Z 32005KT 21/20 A3003 RMK A01 T02090197  RH  093%=      5-min Rain = 0
KPD3 131229Z 32005KT 21/20 A3003 RMK A01 T02100197  RH  093%=      5-min Rain = 0
KPD3 131230Z 33005KT 21/20 A3003 RMK A01 T02100197  RH  092%=      5-min Rain = 0
KPD3 131231Z 33006KT 21/20 A3003 RMK A01 T02110198  RH  092%=      5-min Rain = 0
KPD3 131232Z 33006KT 21/20 A3003 RMK A01 T02120198  RH  092%=      5-min Rain = 0
KPD3 131233Z 33006KT 21/20 A3003 RMK A01 T02130199  RH  092%=      5-min Rain = 0
KPD3 131234Z 33007KT 21/20 A3003 RMK A01 T02140199  RH  091%=      5-min Rain = 0
KPD3 131235Z 33007KT 21/20 A3003 RMK A01 T02140199  RH  091%=      5-min Rain = 0
KPD3 131236Z 32007KT 22/20 A3003 RMK A01 T02150199  RH  091%=      5-min Rain = 0
KPD3 131237Z 33008KT 22/20 A3003 RMK A01 T02160199  RH  090%=      5-min Rain = 0
KPD3 131238Z 33006KT 22/20 A3003 RMK A01 T02160199  RH  090%=      5-min Rain = 0
KPD3 131239Z 32007KT 22/20 A3003 RMK A01 T02160200  RH  090%=      5-min Rain = 0
KPD3 131240Z 33006KT 22/20 A3003 RMK A01 T02170200  RH  090%=      5-min Rain = 0
KPD3 131241Z 33007KT 22/20 A3003 RMK A01 T02170200  RH  090%=      5-min Rain = 0
KPD3 131242Z 33006KT 22/20 A3004 RMK A01 T02180200  RH  090%=      5-min Rain = 0
KPD3 131243Z 34005KT 22/20 A3004 RMK A01 T02180200  RH  090%=      5-min Rain = 0
KPD3 131244Z 33005KT 22/20 A3004 RMK A01 T02180201  RH  090%=      5-min Rain = 0
KPD3 131245Z 34005KT 22/20 A3004 RMK A01 T02190201  RH  090%=      5-min Rain = 0
KPD3 131246Z 34006KT 22/20 A3004 RMK A01 T02190201  RH  089%=      5-min Rain = 0
KPD3 131247Z 34005KT 22/20 A3004 RMK A01 T02190201  RH  089%=      5-min Rain = 0
KPD3 131248Z 35005KT 22/20 A3004 RMK A01 T02200201  RH  089%=      5-min Rain = 0
KPD3 131249Z 35004KT 22/20 A3004 RMK A01 T02200201  RH  089%=      5-min Rain = 0
KPD3 131250Z 35005KT 22/20 A3004 RMK A01 T02210202  RH  089%=      5-min Rain = 0
KPD3 131251Z 35005KT 22/20 A3004 RMK A01 T02210202  RH  089%=      5-min Rain = 0
KPD3 131252Z 35005KT 22/20 A3004 RMK A01 T02220202  RH  089%=      5-min Rain = 0
KPD3 131253Z 35004KT 22/20 A3004 RMK A01 T02220202  RH  088%=      5-min Rain = 0
KPD3 131254Z 35005KT 22/20 A3004 RMK A01 T02230202  RH  088%=      5-min Rain = 0
KPD3 131255Z 36004KT 22/20 A3004 RMK A01 T02230203  RH  088%=      5-min Rain = 0
KPD3 131256Z 36005KT 22/20 A3004 RMK A01 T02230203  RH  088%=      5-min Rain = 0
KPD3 131257Z 36006KT 22/20 A3005 RMK A01 T02240202  RH  088%=      5-min Rain = 0
KPD3 131258Z 00006KT 22/20 A3005 RMK A01 T02240203  RH  088%=      5-min Rain = 0
KPD3 131259Z 35005KT 23/20 A3005 RMK A01 T02250204  RH  088%=      5-min Rain = 0
KPD3 131300Z 36006KT 23/20 A3005 RMK A01 T02250203  RH  087%=      5-min Rain = 0
KPD3 131301Z 35006KT 23/20 A3005 RMK A01 T02260203  RH  087%=      5-min Rain = 0
KPD3 131302Z 35006KT 23/20 A3005 RMK A01 T02260204  RH  087%=      5-min Rain = 0
KPD3 131303Z 35005KT 23/20 A3005 RMK A01 T02260204  RH  087%=      5-min Rain = 0
KPD3 131304Z 34006KT 23/21 A3005 RMK A01 T02270205  RH  087%=      5-min Rain = 0
KPD3 131305Z 35007KT 23/20 A3005 RMK A01 T02270203  RH  086%=      5-min Rain = 0
KPD3 131306Z 35006KT 23/20 A3005 RMK A01 T02270203  RH  086%=      5-min Rain = 0
KPD3 131307Z 35007KT 23/20 A3005 RMK A01 T02270204  RH  086%=      5-min Rain = 0
KPD3 131308Z 35006KT 23/20 A3005 RMK A01 T02280203  RH  086%=      5-min Rain = 0
KPD3 131309Z 36005KT 23/20 A3005 RMK A01 T02280204  RH  086%=      5-min Rain = 0
KPD3 131310Z 35007KT 23/20 A3005 RMK A01 T02290204  RH  086%=      5-min Rain = 0
KPD3 131311Z 00005KT 23/20 A3005 RMK A01 T02290204  RH  086%=      5-min Rain = 0
KPD3 131312Z 01006KT 23/21 A3005 RMK A01 T02300205  RH  086%=      5-min Rain = 0
KPD3 131313Z 36006KT 23/20 A3005 RMK A01 T02300204  RH  085%=      5-min Rain = 0
KPD3 131314Z 00006KT 23/21 A3005 RMK A01 T02300205  RH  085%=      5-min Rain = 0
KPD3 131315Z 01007KT 23/21 A3005 RMK A01 T02310205  RH  085%=      5-min Rain = 0
KPD3 131316Z 01008KT 23/21 A3005 RMK A01 T02310205  RH  085%=      5-min Rain = 0
KPD3 131317Z 00007KT 23/20 A3005 RMK A01 T02310204  RH  085%=      5-min Rain = 0
KPD3 131318Z 00007KT 23/20 A3005 RMK A01 T02310204  RH  085%=      5-min Rain = 0
KPD3 131319Z 01008KT 23/20 A3006 RMK A01 T02310204  RH  085%=      5-min Rain = 0
KPD3 131320Z 01006KT 23/20 A3006 RMK A01 T02310204  RH  085%=      5-min Rain = 0
KPD3 131321Z 01007KT 23/21 A3006 RMK A01 T02320205  RH  085%=      5-min Rain = 0
KPD3 131322Z 01007KT 23/21 A3006 RMK A01 T02320206  RH  085%=      5-min Rain = 0
KPD3 131323Z 01008KT 23/21 A3006 RMK A01 T02330206  RH  085%=      5-min Rain = 0
KPD3 131324Z 01008KT 23/21 A3006 RMK A01 T02330205  RH  084%=      5-min Rain = 0
KPD3 131325Z 00007KT 23/21 A3006 RMK A01 T02330205  RH  084%=      5-min Rain = 0
KPD3 131326Z 00008G13KT 23/21 A3006 RMK A01 T02330206  RH  085%=      5-min Rain = 0
KPD3 131327Z 00010KT 23/21 A3006 RMK A01 T02330205  RH  084%=      5-min Rain = 0
KPD3 131328Z 36010KT 23/20 A3006 RMK A01 T02330204  RH  084%=      5-min Rain = 0
KPD3 131329Z 36011KT 23/20 A3006 RMK A01 T02330204  RH  084%=      5-min Rain = 0
KPD3 131330Z 36012KT 23/20 A3006 RMK A01 T02320203  RH  084%=      5-min Rain = 0
KPD3 131331Z 00010KT 23/20 A3006 RMK A01 T02320204  RH  084%=      5-min Rain = 0
KPD3 131332Z 36010KT 23/20 A3006 RMK A01 T02320204  RH  084%=      5-min Rain = 0
KPD3 131333Z 35009KT 23/20 A3006 RMK A01 T02320204  RH  084%=      5-min Rain = 0
KPD3 131334Z 00009KT 23/20 A3006 RMK A01 T02330204  RH  084%=      5-min Rain = 0
KPD3 131335Z 01011KT 23/21 A3006 RMK A01 T02340206  RH  084%=      5-min Rain = 0
KPD3 131336Z 01011KT 23/21 A3006 RMK A01 T02340205  RH  084%=      5-min Rain = 0
KPD3 131337Z 00012KT 23/21 A3006 RMK A01 T02340205  RH  083%=      5-min Rain = 0
KPD3 131338Z 01009KT 23/21 A3006 RMK A01 T02340205  RH  084%=      5-min Rain = 0
KPD3 131339Z 36010KT 24/21 A3006 RMK A01 T02350205  RH  083%=      5-min Rain = 0
KPD3 131340Z 00011KT 24/21 A3006 RMK A01 T02350205  RH  083%=      5-min Rain = 0
KPD3 131341Z 36010KT 24/20 A3006 RMK A01 T02350204  RH  083%=      5-min Rain = 0
KPD3 131342Z 35009KT 24/21 A3006 RMK A01 T02350205  RH  083%=      5-min Rain = 0
KPD3 131343Z 35007KT 24/21 A3006 RMK A01 T02350206  RH  084%=      5-min Rain = 0
KPD3 131344Z 36008KT 24/21 A3006 RMK A01 T02370207  RH  083%=      5-min Rain = 0
KPD3 131345Z 36007KT 24/21 A3006 RMK A01 T02380206  RH  082%=      5-min Rain = 0
KPD3 131346Z 00007KT 24/21 A3006 RMK A01 T02380207  RH  083%=      5-min Rain = 0
KPD3 131347Z 36008KT 24/21 A3006 RMK A01 T02390207  RH  082%=      5-min Rain = 0
KPD3 131348Z 36009KT 24/21 A3006 RMK A01 T02390206  RH  081%=      5-min Rain = 0
KPD3 131349Z 00010KT 24/21 A3006 RMK A01 T02390206  RH  082%=      5-min Rain = 0
KPD3 131350Z 00010KT 24/21 A3006 RMK A01 T02390206  RH  082%=      5-min Rain = 0
KPD3 131351Z 36008KT 24/21 A3006 RMK A01 T02400206  RH  082%=      5-min Rain = 0
KPD3 131352Z 36009KT 24/21 A3006 RMK A01 T02400206  RH  082%=      5-min Rain = 0
KPD3 131353Z 00008KT 24/21 A3006 RMK A01 T02400207  RH  082%=      5-min Rain = 0
KPD3 131354Z 00008KT 24/21 A3006 RMK A01 T02400207  RH  082%=      5-min Rain = 0
KPD3 131355Z 01008KT 24/21 A3006 RMK A01 T02410206  RH  081%=      5-min Rain = 0
KPD3 131356Z 00009KT 24/21 A3006 RMK A01 T02410207  RH  081%=      5-min Rain = 0
KPD3 131357Z 01011KT 24/21 A3006 RMK A01 T02410207  RH  081%=      5-min Rain = 0
KPD3 131358Z 01010KT 24/21 A3006 RMK A01 T02410206  RH  080%=      5-min Rain = 0
KPD3 131359Z 00009KT 24/21 A3006 RMK A01 T02410206  RH  081%=      5-min Rain = 0
KPD3 131400Z 36008KT 24/21 A3007 RMK A01 T02410207  RH  081%=      5-min Rain = 0
KPD3 131401Z 01009KT 24/21 A3007 RMK A01 T02420208  RH  081%=      5-min Rain = 0
KPD3 131402Z 01009KT 24/21 A3007 RMK A01 T02440208  RH  080%=      5-min Rain = 0
KPD3 131403Z 01009KT 25/21 A3007 RMK A01 T02450208  RH  080%=      5-min Rain = 0
KPD3 131404Z 36008KT 25/21 A3007 RMK A01 T02450208  RH  080%=      5-min Rain = 0
KPD3 131405Z 00009KT 25/21 A3007 RMK A01 T02460208  RH  080%=      5-min Rain = 0
KPD3 131406Z 01008KT 25/21 A3007 RMK A01 T02460208  RH  079%=      5-min Rain = 0
KPD3 131407Z 01010KT 25/21 A3007 RMK A01 T02470208  RH  079%=      5-min Rain = 0
KPD3 131408Z 00011KT 25/21 A3007 RMK A01 T02470208  RH  078%=      5-min Rain = 0
KPD3 131409Z 00011KT 25/21 A3007 RMK A01 T02470206  RH  078%=      5-min Rain = 0
KPD3 131410Z 36009KT 25/21 A3007 RMK A01 T02460206  RH  078%=      5-min Rain = 0
KPD3 131411Z 00008KT 25/21 A3007 RMK A01 T02450206  RH  079%=      5-min Rain = 0
KPD3 131412Z 00009KT 25/21 A3007 RMK A01 T02450207  RH  079%=      5-min Rain = 0
KPD3 131413Z 01009KT 25/21 A3007 RMK A01 T02460208  RH  079%=      5-min Rain = 0
KPD3 131414Z 01011KT 25/21 A3007 RMK A01 T02470207  RH  078%=      5-min Rain = 0
KPD3 131415Z 01008KT 25/21 A3007 RMK A01 T02480206  RH  078%=      5-min Rain = 0
KPD3 131416Z 00007KT 25/21 A3007 RMK A01 T02470208  RH  079%=      5-min Rain = 0
KPD3 131417Z 00010KT 25/21 A3007 RMK A01 T02480207  RH  078%=      5-min Rain = 0
KPD3 131418Z 00008KT 25/21 A3007 RMK A01 T02480206  RH  077%=      5-min Rain = 0
KPD3 131419Z 36009KT 25/21 A3007 RMK A01 T02470206  RH  078%=      5-min Rain = 0
KPD3 131420Z 01009KT 25/21 A3007 RMK A01 T02480207  RH  078%=      5-min Rain = 0
KPD3 131421Z 35010KT 25/21 A3007 RMK A01 T02490207  RH  078%=      5-min Rain = 0
KPD3 131422Z 35009KT 25/21 A3007 RMK A01 T02490206  RH  077%=      5-min Rain = 0
KPD3 131423Z 01008KT 25/21 A3007 RMK A01 T02490206  RH  077%=      5-min Rain = 0
KPD3 131424Z 00008KT 25/21 A3007 RMK A01 T02500208  RH  077%=      5-min Rain = 0
KPD3 131425Z 01008KT 25/21 A3007 RMK A01 T02510207  RH  076%=      5-min Rain = 0
KPD3 131426Z 00007KT 25/21 A3007 RMK A01 T02510207  RH  076%=      5-min Rain = 0
KPD3 131427Z 01009KT 25/21 A3007 RMK A01 T02510207  RH  076%=      5-min Rain = 0
KPD3 131428Z 01007KT 25/21 A3007 RMK A01 T02520207  RH  076%=      5-min Rain = 0
KPD3 131429Z 01008KT 25/21 A3007 RMK A01 T02530208  RH  076%=      5-min Rain = 0
KPD3 131430Z 36010KT 25/21 A3007 RMK A01 T02540207  RH  075%=      5-min Rain = 0
KPD3 131431Z 01010KT 26/21 A3007 RMK A01 T02550207  RH  075%=      5-min Rain = 0
KPD3 131432Z 00008G13KT 25/21 A3007 RMK A01 T02540206  RH  075%=      5-min Rain = 0
KPD3 131433Z 36011KT 25/21 A3007 RMK A01 T02540206  RH  074%=      5-min Rain = 0
KPD3 131434Z 35011KT 25/21 A3007 RMK A01 T02540206  RH  074%=      5-min Rain = 0
KPD3 131435Z 36009KT 25/21 A3007 RMK A01 T02540206  RH  075%=      5-min Rain = 0
KPD3 131436Z 36011KT 25/21 A3007 RMK A01 T02540205  RH  074%=      5-min Rain = 0
KPD3 131437Z 36009KT 26/21 A3007 RMK A01 T02550206  RH  074%=      5-min Rain = 0
KPD3 131438Z 35009KT 26/21 A3007 RMK A01 T02550207  RH  075%=      5-min Rain = 0
KPD3 131439Z 34010KT 26/21 A3007 RMK A01 T02560207  RH  074%=      5-min Rain = 0
KPD3 131440Z 36008KT 26/21 A3007 RMK A01 T02560206  RH  074%=      5-min Rain = 0
KPD3 131441Z 35008KT 26/21 A3007 RMK A01 T02560208  RH  075%=      5-min Rain = 0
KPD3 131442Z 35006KT 26/21 A3008 RMK A01 T02580210  RH  075%=      5-min Rain = 0
KPD3 131443Z 35007KT 26/21 A3008 RMK A01 T02620210  RH  073%=      5-min Rain = 0
KPD3 131444Z 34010KT 26/21 A3008 RMK A01 T02630207  RH  071%=      5-min Rain = 0
KPD3 131445Z 35011KT 26/21 A3008 RMK A01 T02620208  RH  072%=      5-min Rain = 0
KPD3 131446Z 35011KT 26/21 A3008 RMK A01 T02610207  RH  072%=      5-min Rain = 0
KPD3 131447Z 36010KT 26/21 A3008 RMK A01 T02600208  RH  073%=      5-min Rain = 0
KPD3 131448Z 35009KT 26/21 A3008 RMK A01 T02580206  RH  073%=      5-min Rain = 0
KPD3 131449Z 35010KT 26/21 A3008 RMK A01 T02590208  RH  074%=      5-min Rain = 0
KPD3 131450Z 35010KT 26/21 A3008 RMK A01 T02600208  RH  073%=      5-min Rain = 0
KPD3 131451Z 35009KT 26/21 A3008 RMK A01 T02610206  RH  072%=      5-min Rain = 0
KPD3 131452Z 34011KT 26/21 A3008 RMK A01 T02610207  RH  072%=      5-min Rain = 0
KPD3 131453Z 34011KT 26/21 A3008 RMK A01 T02610206  RH  072%=      5-min Rain = 0
KPD3 131454Z 35009KT 26/21 A3008 RMK A01 T02610207  RH  072%=      5-min Rain = 0
KPD3 131455Z 35009KT 26/21 A3008 RMK A01 T02610207  RH  072%=      5-min Rain = 0
KPD3 131456Z 36008KT 26/21 A3008 RMK A01 T02610207  RH  072%=      5-min Rain = 0
KPD3 131457Z 01009KT 26/21 A3008 RMK A01 T02620206  RH  072%=      5-min Rain = 0
KPD3 131458Z 00009KT 26/21 A3008 RMK A01 T02620208  RH  072%=      5-min Rain = 0
KPD3 131459Z 00008KT 26/21 A3008 RMK A01 T02630208  RH  071%=      5-min Rain = 0
KPD3 131500Z 02008KT 26/21 A3008 RMK A01 T02640209  RH  072%=      5-min Rain = 0
KPD3 131501Z 01009KT 27/21 A3008 RMK A01 T02660209  RH  071%=      5-min Rain = 0
KPD3 131502Z 35006KT 27/21 A3008 RMK A01 T02670208  RH  070%=      5-min Rain = 0
KPD3 131503Z 01007KT 27/21 A3008 RMK A01 T02660209  RH  071%=      5-min Rain = 0
KPD3 131504Z 02007KT 27/21 A3008 RMK A01 T02660210  RH  071%=      5-min Rain = 0
KPD3 131505Z 35008KT 27/21 A3008 RMK A01 T02670210  RH  071%=      5-min Rain = 0
KPD3 131506Z 36007KT 27/21 A3008 RMK A01 T02700210  RH  070%=      5-min Rain = 0
KPD3 131507Z 02007KT 27/21 A3008 RMK A01 T02710209  RH  069%=      5-min Rain = 0
KPD3 131508Z 00007KT 27/21 A3008 RMK A01 T02710209  RH  069%=      5-min Rain = 0
KPD3 131509Z 35008KT 27/21 A3008 RMK A01 T02700207  RH  068%=      5-min Rain = 0
KPD3 131510Z 35007KT 27/21 A3008 RMK A01 T02700208  RH  069%=      5-min Rain = 0
KPD3 131511Z 34008KT 27/21 A3008 RMK A01 T02710208  RH  069%=      5-min Rain = 0
KPD3 131512Z 35007KT 27/21 A3008 RMK A01 T02700209  RH  069%=      5-min Rain = 0
KPD3 131513Z 01008KT 27/21 A3008 RMK A01 T02710209  RH  069%=      5-min Rain = 0
KPD3 131514Z 01008KT 27/21 A3008 RMK A01 T02710207  RH  068%=      5-min Rain = 0
KPD3 131515Z 01009KT 27/21 A3008 RMK A01 T02720208  RH  068%=      5-min Rain = 0
KPD3 131516Z 02007KT 27/21 A3008 RMK A01 T02710208  RH  068%=      5-min Rain = 0
KPD3 131517Z 02007KT 27/21 A3008 RMK A01 T02720211  RH  069%=      5-min Rain = 0
KPD3 131518Z 00010KT 28/21 A3008 RMK A01 T02750210  RH  068%=      5-min Rain = 0
KPD3 131519Z 36010KT 28/21 A3008 RMK A01 T02760209  RH  067%=      5-min Rain = 0
KPD3 131520Z 36009KT 28/21 A3008 RMK A01 T02760208  RH  066%=      5-min Rain = 0
KPD3 131521Z 35008KT 28/21 A3008 RMK A01 T02760208  RH  067%=      5-min Rain = 0
KPD3 131522Z 35008KT 28/21 A3008 RMK A01 T02750208  RH  067%=      5-min Rain = 0
KPD3 131523Z 01006KT 28/21 A3008 RMK A01 T02760207  RH  066%=      5-min Rain = 0
KPD3 131524Z 01006KT 28/21 A3008 RMK A01 T02760205  RH  065%=      5-min Rain = 0
KPD3 131525Z 00010KT 28/21 A3008 RMK A01 T02770209  RH  067%=      5-min Rain = 0
KPD3 131526Z 01008KT 28/21 A3008 RMK A01 T02780207  RH  065%=      5-min Rain = 0
KPD3 131527Z 00007KT 28/21 A3008 RMK A01 T02780208  RH  066%=      5-min Rain = 0
KPD3 131528Z 01009KT 28/21 A3008 RMK A01 T02770208  RH  066%=      5-min Rain = 0
KPD3 131529Z 01009KT 28/21 A3008 RMK A01 T02770207  RH  066%=      5-min Rain = 0
KPD3 131530Z 01008KT 28/21 A3008 RMK A01 T02770207  RH  066%=      5-min Rain = 0
KPD3 131531Z 35008KT 28/21 A3008 RMK A01 T02770208  RH  066%=      5-min Rain = 0
KPD3 131532Z 00008KT 28/21 A3008 RMK A01 T02780208  RH  066%=      5-min Rain = 0
KPD3 131533Z 34007KT 28/21 A3008 RMK A01 T02780209  RH  066%=      5-min Rain = 0
KPD3 131534Z 35007KT 28/21 A3008 RMK A01 T02800206  RH  064%=      5-min Rain = 0
KPD3 131535Z 01009KT 28/21 A3008 RMK A01 T02810208  RH  065%=      5-min Rain = 0
KPD3 131536Z 01010KT 28/21 A3008 RMK A01 T02840205  RH  062%=      5-min Rain = 0
KPD3 131537Z 02008KT 29/21 A3008 RMK A01 T02850206  RH  062%=      5-min Rain = 0
KPD3 131538Z 01011KT 28/21 A3008 RMK A01 T02840206  RH  063%=      5-min Rain = 0
KPD3 131539Z 01007KT 28/21 A3008 RMK A01 T02820206  RH  063%=      5-min Rain = 0
KPD3 131540Z 01008KT 28/21 A3008 RMK A01 T02810208  RH  064%=      5-min Rain = 0
KPD3 131541Z 01009KT 28/21 A3008 RMK A01 T02820207  RH  064%=      5-min Rain = 0
KPD3 131542Z 35009KT 28/21 A3008 RMK A01 T02840206  RH  062%=      5-min Rain = 0
KPD3 131543Z 34009KT 29/20 A3008 RMK A01 T02850203  RH  061%=      5-min Rain = 0
KPD3 131544Z 35009KT 29/20 A3008 RMK A01 T02870203  RH  060%=      5-min Rain = 0
KPD3 131545Z 00009KT 29/21 A3008 RMK A01 T02870205  RH  061%=      5-min Rain = 0
KPD3 131546Z 03006KT 29/21 A3008 RMK A01 T02860205  RH  061%=      5-min Rain = 0
KPD3 131547Z 35009KT 29/21 A3008 RMK A01 T02860206  RH  062%=      5-min Rain = 0
KPD3 131548Z 35010KT 29/20 A3008 RMK A01 T02870201  RH  060%=      5-min Rain = 0
KPD3 131549Z 34008KT 29/20 A3008 RMK A01 T02860199  RH  059%=      5-min Rain = 0
KPD3 131550Z 35009KT 29/21 A3008 RMK A01 T02860205  RH  061%=      5-min Rain = 0
KPD3 131551Z 35008KT 29/20 A3008 RMK A01 T02880200  RH  059%=      5-min Rain = 0
KPD3 131552Z 34008KT 29/20 A3008 RMK A01 T02870201  RH  060%=      5-min Rain = 0
KPD3 131553Z 34008KT 29/20 A3008 RMK A01 T02890203  RH  060%=      5-min Rain = 0
KPD3 131554Z 34009KT 29/20 A3008 RMK A01 T02920202  RH  058%=      5-min Rain = 0
KPD3 131555Z 35009KT 29/21 A3008 RMK A01 T02930205  RH  059%=      5-min Rain = 0
KPD3 131556Z 36007KT 29/20 A3008 RMK A01 T02900202  RH  059%=      5-min Rain = 0
KPD3 131557Z 00005KT 29/20 A3008 RMK A01 T02860201  RH  060%=      5-min Rain = 0
KPD3 131558Z 01008KT 29/20 A3008 RMK A01 T02850202  RH  060%=      5-min Rain = 0
KPD3 131559Z 36007KT 29/20 A3008 RMK A01 T02880201  RH  059%=      5-min Rain = 0
KPD3 131600Z 36006KT 29/20 A3008 RMK A01 T02890200  RH  058%=      5-min Rain = 0
KPD3 131601Z 00005KT 29/20 A3008 RMK A01 T02900197  RH  057%=      5-min Rain = 0
KPD3 131602Z 01006KT 29/20 A3008 RMK A01 T02900201  RH  058%=      5-min Rain = 0
KPD3 131603Z 35006KT 29/21 A3008 RMK A01 T02920206  RH  060%=      5-min Rain = 0
KPD3 131604Z 34006KT 30/21 A3008 RMK A01 T02950208  RH  059%=      5-min Rain = 0
KPD3 131605Z 35009KT 30/21 A3008 RMK A01 T02970208  RH  059%=      5-min Rain = 0
KPD3 131606Z 00007KT 30/21 A3008 RMK A01 T02970207  RH  059%=      5-min Rain = 0
KPD3 131607Z 01005KT 30/21 A3008 RMK A01 T02960207  RH  059%=      5-min Rain = 0
KPD3 131608Z 01006KT 30/20 A3008 RMK A01 T02960204  RH  058%=      5-min Rain = 0
KPD3 131609Z 02010KT 30/20 A3008 RMK A01 T02970203  RH  057%=      5-min Rain = 0
KPD3 131610Z 01008KT 30/20 A3008 RMK A01 T02990203  RH  056%=      5-min Rain = 0
KPD3 131611Z 01006KT 30/20 A3008 RMK A01 T02980202  RH  056%=      5-min Rain = 0
KPD3 131612Z 36008KT 29/20 A3008 RMK A01 T02940203  RH  058%=      5-min Rain = 0
KPD3 131613Z 35008KT 29/20 A3008 RMK A01 T02940203  RH  058%=      5-min Rain = 0
KPD3 131614Z 33006KT 30/20 A3008 RMK A01 T02950202  RH  058%=      5-min Rain = 0
KPD3 131615Z 01007KT 30/20 A3008 RMK A01 T02960202  RH  057%=      5-min Rain = 0
KPD3 131616Z 03008KT 30/20 A3008 RMK A01 T02980198  RH  055%=      5-min Rain = 0
KPD3 131617Z 03008KT 30/20 A3008 RMK A01 T03000196  RH  054%=      5-min Rain = 0
KPD3 131618Z 02005KT 30/20 A3008 RMK A01 T03010195  RH  053%=      5-min Rain = 0
KPD3 131619Z 04007KT 30/20 A3008 RMK A01 T03010195  RH  053%=      5-min Rain = 0
KPD3 131620Z 03006KT 30/20 A3008 RMK A01 T03030199  RH  054%=      5-min Rain = 0
KPD3 131621Z 02005KT 30/20 A3008 RMK A01 T03040201  RH  054%=      5-min Rain = 0
KPD3 131622Z 01009KT 31/20 A3008 RMK A01 T03060199  RH  053%=      5-min Rain = 0
KPD3 131623Z 01008KT 31/20 A3008 RMK A01 T03070196  RH  052%=      5-min Rain = 0
KPD3 131624Z 01008KT 31/19 A3009 RMK A01 T03050194  RH  052%=      5-min Rain = 0
KPD3 131625Z 03004KT 31/20 A3009 RMK A01 T03050196  RH  052%=      5-min Rain = 0
KPD3 131626Z 01007KT 30/20 A3009 RMK A01 T03040196  RH  052%=      5-min Rain = 0
KPD3 131627Z 35008KT 30/20 A3009 RMK A01 T03020199  RH  054%=      5-min Rain = 0
KPD3 131628Z 36007KT 30/20 A3008 RMK A01 T03000199  RH  055%=      5-min Rain = 0
KPD3 131629Z 34007KT 30/20 A3008 RMK A01 T02990196  RH  054%=      5-min Rain = 0
KPD3 131630Z 34006KT 30/20 A3008 RMK A01 T03000196  RH  054%=      5-min Rain = 0
KPD3 131631Z 03006KT 30/20 A3008 RMK A01 T03030197  RH  053%=      5-min Rain = 0
KPD3 131632Z 01004KT 31/20 A3008 RMK A01 T03050197  RH  053%=      5-min Rain = 0
KPD3 131633Z 35005KT 31/20 A3008 RMK A01 T03070200  RH  053%=      5-min Rain = 0
KPD3 131634Z 01008G13KT 31/20 A3008 RMK A01 T03080201  RH  053%=      5-min Rain = 0
KPD3 131635Z 03010KT 31/20 A3008 RMK A01 T03080195  RH  051%=      5-min Rain = 0
KPD3 131636Z 03010KT 31/19 A3008 RMK A01 T03070192  RH  050%=      5-min Rain = 0
KPD3 131637Z 02009KT 31/19 A3009 RMK A01 T03060192  RH  051%=      5-min Rain = 0
KPD3 131638Z 01007KT 31/19 A3008 RMK A01 T03050189  RH  050%=      5-min Rain = 0
KPD3 131639Z 04005G11KT 30/19 A3008 RMK A01 T03030186  RH  050%=      5-min Rain = 0
KPD3 131640Z 03003KT 30/19 A3008 RMK A01 T03020185  RH  050%=      5-min Rain = 0
KPD3 131641Z 02005KT 30/19 A3008 RMK A01 T03020192  RH  052%=      5-min Rain = 0
KPD3 131642Z 02008KT 30/20 A3008 RMK A01 T03040195  RH  052%=      5-min Rain = 0
KPD3 131643Z 01005KT 31/19 A3008 RMK A01 T03050192  RH  051%=      5-min Rain = 0
KPD3 131644Z 01007KT 30/19 A3008 RMK A01 T03030193  RH  052%=      5-min Rain = 0
KPD3 131645Z 01009KT 31/19 A3008 RMK A01 T03060191  RH  050%=      5-min Rain = 0
KPD3 131646Z 03008KT 31/19 A3009 RMK A01 T03070189  RH  049%=      5-min Rain = 0
KPD3 131647Z 04005KT 31/19 A3008 RMK A01 T03060194  RH  051%=      5-min Rain = 0
KPD3 131648Z 01010KT 31/20 A3008 RMK A01 T03070195  RH  051%=      5-min Rain = 0
KPD3 131649Z 03008KT 31/19 A3008 RMK A01 T03090194  RH  050%=      5-min Rain = 0
KPD3 131650Z 04006KT 31/20 A3009 RMK A01 T03110195  RH  050%=      5-min Rain = 0
KPD3 131651Z 35006KT 31/19 A3008 RMK A01 T03110194  RH  050%=      5-min Rain = 0
KPD3 131652Z 01008KT 31/19 A3008 RMK A01 T03120194  RH  050%=      5-min Rain = 0
KPD3 131653Z 04011KT 31/19 A3008 RMK A01 T03130193  RH  049%=      5-min Rain = 0
KPD3 131654Z 02011KT 31/19 A3008 RMK A01 T03140190  RH  048%=      5-min Rain = 0
KPD3 131655Z 04005KT 31/19 A3008 RMK A01 T03110192  RH  049%=      5-min Rain = 0
KPD3 131656Z 05004KT 31/19 A3008 RMK A01 T03120194  RH  049%=      5-min Rain = 0
KPD3 131657Z 04004KT 31/19 A3008 RMK A01 T03130192  RH  049%=      5-min Rain = 0
KPD3 131658Z 05008G13KT 31/19 A3008 RMK A01 T03130192  RH  049%=      5-min Rain = 0
KPD3 131659Z 02006KT 31/19 A3008 RMK A01 T03120189  RH  048%=      5-min Rain = 0
KPD3 131700Z 36005KT 31/19 A3008 RMK A01 T03100190  RH  049%=      5-min Rain = 0
KPD3 131701Z 36006KT 31/19 A3008 RMK A01 T03110189  RH  048%=      5-min Rain = 0
KPD3 131702Z 01004KT 31/19 A3008 RMK A01 T03110191  RH  049%=      5-min Rain = 0
KPD3 131703Z 04004KT 31/19 A3008 RMK A01 T03130190  RH  048%=      5-min Rain = 0
KPD3 131704Z 06008KT 31/19 A3008 RMK A01 T03140191  RH  048%=      5-min Rain = 0
KPD3 131705Z 08010KT 32/19 A3008 RMK A01 T03150188  RH  047%=      5-min Rain = 0
KPD3 131706Z 04006KT 32/19 A3008 RMK A01 T03170188  RH  046%=      5-min Rain = 0
KPD3 131707Z 35002KT 32/19 A3008 RMK A01 T03150186  RH  046%=      5-min Rain = 0
KPD3 131708Z 07003KT 31/19 A3008 RMK A01 T03130188  RH  047%=      5-min Rain = 0
KPD3 131709Z 07004KT 31/19 A3008 RMK A01 T03130189  RH  048%=      5-min Rain = 0
KPD3 131710Z 08006KT 32/19 A3008 RMK A01 T03170192  RH  047%=      5-min Rain = 0
KPD3 131711Z 35004G11KT 32/19 A3008 RMK A01 T03200190  RH  046%=      5-min Rain = 0
KPD3 131712Z 00011KT 32/19 A3008 RMK A01 T03210189  RH  046%=      5-min Rain = 0
KPD3 131713Z 35006KT 32/19 A3008 RMK A01 T03190187  RH  046%=      5-min Rain = 0
KPD3 131714Z 00007KT 32/19 A3008 RMK A01 T03170187  RH  046%=      5-min Rain = 0
KPD3 131715Z 04009KT 32/19 A3008 RMK A01 T03160188  RH  047%=      5-min Rain = 0
KPD3 131716Z 06009KT 32/19 A3008 RMK A01 T03170188  RH  046%=      5-min Rain = 0
KPD3 131717Z 07009KT 32/19 A3008 RMK A01 T03190188  RH  046%=      5-min Rain = 0
KPD3 131718Z 10008G17KT 32/19 A3008 RMK A01 T03180189  RH  047%=      5-min Rain = 0
KPD3 131719Z 07011G17KT 32/19 A3008 RMK A01 T03200189  RH  046%=      5-min Rain = 0
KPD3 131720Z 06005KT 32/19 A3008 RMK A01 T03210189  RH  046%=      5-min Rain = 0
KPD3 131721Z 02002KT 32/19 A3008 RMK A01 T03180187  RH  046%=      5-min Rain = 0
KPD3 131722Z 04002KT 32/19 A3008 RMK A01 T03160189  RH  047%=      5-min Rain = 0
KPD3 131723Z 01004KT 32/19 A3008 RMK A01 T03170190  RH  047%=      5-min Rain = 0
KPD3 131724Z 35004KT 32/19 A3008 RMK A01 T03190191  RH  047%=      5-min Rain = 0
KPD3 131725Z 05005G11KT 32/19 A3008 RMK A01 T03230191  RH  046%=      5-min Rain = 0
KPD3 131726Z 07009KT 32/19 A3008 RMK A01 T03240191  RH  045%=      5-min Rain = 0
KPD3 131727Z 07012KT 33/19 A3008 RMK A01 T03260190  RH  045%=      5-min Rain = 0
KPD3 131728Z 06013KT 33/18 A3008 RMK A01 T03290183  RH  042%=      5-min Rain = 0
KPD3 131729Z 07010KT 33/18 A3008 RMK A01 T03290183  RH  042%=      5-min Rain = 0
KPD3 131730Z 08008KT 33/18 A3008 RMK A01 T03310180  RH  041%=      5-min Rain = 0
KPD3 131731Z 08005KT 33/18 A3008 RMK A01 T03310178  RH  040%=      5-min Rain = 0
KPD3 131732Z 09007KT 33/19 A3008 RMK A01 T03300185  RH  042%=      5-min Rain = 0
KPD3 131733Z 08011KT 33/19 A3008 RMK A01 T03320186  RH  042%=      5-min Rain = 0
KPD3 131734Z 08012KT 33/18 A3008 RMK A01 T03320184  RH  042%=      5-min Rain = 0
KPD3 131735Z 08007KT 33/18 A3008 RMK A01 T03270183  RH  042%=      5-min Rain = 0
KPD3 131736Z 08006KT 33/18 A3008 RMK A01 T03250183  RH  043%=      5-min Rain = 0
KPD3 131737Z 03006KT 33/19 A3008 RMK A01 T03250186  RH  044%=      5-min Rain = 0
KPD3 131738Z 06008KT 33/19 A3008 RMK A01 T03260189  RH  044%=      5-min Rain = 0
KPD3 131739Z 09005KT 33/19 A3008 RMK A01 T03270190  RH  044%=      5-min Rain = 0
KPD3 131740Z 08007KT 33/19 A3008 RMK A01 T03250190  RH  045%=      5-min Rain = 0
KPD3 131741Z 05010G15KT 32/19 A3008 RMK A01 T03230191  RH  046%=      5-min Rain = 0
KPD3 131742Z 05011KT 32/19 A3008 RMK A01 T03240185  RH  044%=      5-min Rain = 0
KPD3 131743Z 07008KT 32/19 A3008 RMK A01 T03240185  RH  044%=      5-min Rain = 0
KPD3 131744Z 08007KT 33/19 A3008 RMK A01 T03250186  RH  044%=      5-min Rain = 0
KPD3 131745Z 09005KT 32/19 A3008 RMK A01 T03230187  RH  044%=      5-min Rain = 0
KPD3 131746Z 06009KT 32/19 A3008 RMK A01 T03220191  RH  046%=      5-min Rain = 0
KPD3 131747Z 07008G13KT 32/19 A3008 RMK A01 T03240193  RH  046%=      5-min Rain = 0
KPD3 131748Z 03010KT 33/19 A3008 RMK A01 T03260192  RH  045%=      5-min Rain = 0
KPD3 131749Z 04007KT 33/19 A3008 RMK A01 T03260191  RH  045%=      5-min Rain = 0
KPD3 131750Z 05007KT 32/19 A3008 RMK A01 T03240191  RH  045%=      5-min Rain = 0
KPD3 131751Z 05006KT 32/19 A3008 RMK A01 T03240193  RH  046%=      5-min Rain = 0
KPD3 131752Z 03007KT 33/19 A3008 RMK A01 T03260192  RH  045%=      5-min Rain = 0
KPD3 131753Z 06011KT 33/19 A3008 RMK A01 T03300189  RH  043%=      5-min Rain = 0
KPD3 131754Z 05011KT 33/19 A3008 RMK A01 T03290188  RH  043%=      5-min Rain = 0
KPD3 131755Z 05009KT 33/18 A3008 RMK A01 T03290184  RH  042%=      5-min Rain = 0
KPD3 131756Z 05008KT 33/18 A3008 RMK A01 T03270182  RH  042%=      5-min Rain = 0
KPD3 131757Z 07009G14KT 33/18 A3008 RMK A01 T03250183  RH  043%=      5-min Rain = 0
KPD3 131758Z 07010KT 33/18 A3008 RMK A01 T03270182  RH  042%=      5-min Rain = 0
KPD3 131759Z 07009KT 33/18 A3008 RMK A01 T03270181  RH  042%=      5-min Rain = 0
KPD3 131800Z 08008KT 33/18 A3008 RMK A01 T03270184  RH  043%=      5-min Rain = 0
KPD3 131801Z 10007KT 33/19 A3008 RMK A01 T03280185  RH  043%=      5-min Rain = 0
KPD3 131802Z 07003KT 33/19 A3008 RMK A01 T03280187  RH  043%=      5-min Rain = 0
KPD3 131803Z 04006KT 33/19 A3008 RMK A01 T03300190  RH  043%=      5-min Rain = 0
KPD3 131804Z 05009KT 33/19 A3008 RMK A01 T03320187  RH  042%=      5-min Rain = 0
KPD3 131805Z 05010KT 34/18 A3007 RMK A01 T03360179  RH  039%=      5-min Rain = 0
KPD3 131806Z 06009KT 34/17 A3007 RMK A01 T03350174  RH  038%=      5-min Rain = 0
KPD3 131807Z 06004KT 33/18 A3007 RMK A01 T03290178  RH  041%=      5-min Rain = 0
KPD3 131808Z 08005KT 33/18 A3007 RMK A01 T03290180  RH  041%=      5-min Rain = 0
KPD3 131809Z 07006KT 33/19 A3007 RMK A01 T03330185  RH  042%=      5-min Rain = 0
KPD3 131810Z 06011G16KT 33/19 A3007 RMK A01 T03330186  RH  042%=      5-min Rain = 0
KPD3 131811Z 06013KT 33/18 A3007 RMK A01 T03340182  RH  041%=      5-min Rain = 0
KPD3 131812Z 06013KT 33/18 A3007 RMK A01 T03340180  RH  040%=      5-min Rain = 0
KPD3 131813Z 06011KT 33/18 A3007 RMK A01 T03340176  RH  039%=      5-min Rain = 0
KPD3 131814Z 06009KT 33/18 A3007 RMK A01 T03330175  RH  039%=      5-min Rain = 0
KPD3 131815Z 05007KT 33/18 A3007 RMK A01 T03290175  RH  040%=      5-min Rain = 0
KPD3 131816Z 04006KT 33/18 A3007 RMK A01 T03260176  RH  041%=      5-min Rain = 0
KPD3 131817Z 04008KT 33/18 A3007 RMK A01 T03280183  RH  042%=      5-min Rain = 0
KPD3 131818Z 07004KT 33/18 A3007 RMK A01 T03300184  RH  042%=      5-min Rain = 0
KPD3 131819Z 04007KT 33/18 A3007 RMK A01 T03290184  RH  042%=      5-min Rain = 0
KPD3 131820Z 02004KT 33/18 A3007 RMK A01 T03280182  RH  042%=      5-min Rain = 0
KPD3 131821Z 03007G12KT 33/19 A3007 RMK A01 T03270185  RH  043%=      5-min Rain = 0
KPD3 131822Z 05011KT 33/19 A3007 RMK A01 T03320186  RH  042%=      5-min Rain = 0
KPD3 131823Z 05012KT 34/19 A3007 RMK A01 T03360185  RH  041%=      5-min Rain = 0
KPD3 131824Z 07009KT 34/19 A3007 RMK A01 T03370185  RH  041%=      5-min Rain = 0
KPD3 131825Z 08005KT 34/18 A3007 RMK A01 T03350184  RH  041%=      5-min Rain = 0
KPD3 131826Z 08008KT 34/19 A3007 RMK A01 T03350186  RH  042%=      5-min Rain = 0
KPD3 131827Z 07009G14KT 34/19 A3007 RMK A01 T03390190  RH  041%=      5-min Rain = 0
KPD3 131828Z 05009KT 34/19 A3007 RMK A01 T03400190  RH  041%=      5-min Rain = 0
KPD3 131829Z 04011KT 34/19 A3007 RMK A01 T03360191  RH  043%=      5-min Rain = 0
KPD3 131830Z 05010KT 33/19 A3007 RMK A01 T03330189  RH  043%=      5-min Rain = 0
KPD3 131831Z 05009KT 33/19 A3007 RMK A01 T03340188  RH  042%=      5-min Rain = 0
KPD3 131832Z 05011KT 33/19 A3007 RMK A01 T03340186  RH  042%=      5-min Rain = 0
KPD3 131833Z 08007KT 33/19 A3007 RMK A01 T03340186  RH  041%=      5-min Rain = 0
KPD3 131834Z 10005KT 33/19 A3007 RMK A01 T03310188  RH  043%=      5-min Rain = 0
KPD3 131835Z 09004KT 33/19 A3007 RMK A01 T03290188  RH  043%=      5-min Rain = 0
KPD3 131836Z 06004KT 33/19 A3007 RMK A01 T03280188  RH  044%=      5-min Rain = 0
KPD3 131837Z 06005KT 33/19 A3007 RMK A01 T03270188  RH  044%=      5-min Rain = 0
KPD3 131838Z 07009KT 33/19 A3007 RMK A01 T03290190  RH  044%=      5-min Rain = 0
KPD3 131839Z 06008G14KT 33/19 A3007 RMK A01 T03300189  RH  043%=      5-min Rain = 0
KPD3 131840Z 06014KT 33/18 A3007 RMK A01 T03330184  RH  041%=      5-min Rain = 0
KPD3 131841Z 07014KT 34/18 A3007 RMK A01 T03370181  RH  040%=      5-min Rain = 0
KPD3 131842Z 06009KT 34/18 A3007 RMK A01 T03380180  RH  039%=      5-min Rain = 0
KPD3 131843Z 10008KT 34/18 A3007 RMK A01 T03370181  RH  040%=      5-min Rain = 0
KPD3 131844Z 08008KT 34/18 A3007 RMK A01 T03360180  RH  040%=      5-min Rain = 0
KPD3 131845Z 04011KT 34/19 A3007 RMK A01 T03360187  RH  041%=      5-min Rain = 0
KPD3 131846Z 03010G15KT 34/19 A3007 RMK A01 T03370189  RH  042%=      5-min Rain = 0
KPD3 131847Z 03010KT 33/19 A3007 RMK A01 T03340187  RH  042%=      5-min Rain = 0
KPD3 131848Z 02008KT 33/19 A3007 RMK A01 T03310185  RH  042%=      5-min Rain = 0
KPD3 131849Z 04009KT 33/18 A3007 RMK A01 T03290184  RH  042%=      5-min Rain = 0
KPD3 131850Z 04008KT 33/19 A3007 RMK A01 T03280185  RH  043%=      5-min Rain = 0
KPD3 131851Z 06010KT 33/19 A3007 RMK A01 T03270185  RH  043%=      5-min Rain = 0
KPD3 131852Z 06010KT 33/19 A3007 RMK A01 T03330187  RH  042%=      5-min Rain = 0
KPD3 131853Z 07006KT 34/19 A3007 RMK A01 T03380189  RH  041%=      5-min Rain = 0
KPD3 131854Z 08006KT 34/19 A3007 RMK A01 T03370187  RH  041%=      5-min Rain = 0
KPD3 131855Z 05008KT 33/19 A3007 RMK A01 T03340185  RH  041%=      5-min Rain = 0
KPD3 131856Z 08009KT 34/19 A3007 RMK A01 T03380185  RH  040%=      5-min Rain = 0
KPD3 131857Z 09008KT 34/18 A3007 RMK A01 T03400181  RH  039%=      5-min Rain = 0
KPD3 131858Z 09006KT 34/18 A3007 RMK A01 T03400178  RH  038%=      5-min Rain = 0
KPD3 131859Z 09007KT 34/18 A3007 RMK A01 T03370178  RH  039%=      5-min Rain = 0
KPD3 131900Z 07009G17KT 34/18 A3006 RMK A01 T03370181  RH  040%=      5-min Rain = 0
KPD3 131901Z 04012KT 34/18 A3007 RMK A01 T03390184  RH  040%=      5-min Rain = 0
KPD3 131902Z 06012KT 34/19 A3007 RMK A01 T03430185  RH  039%=      5-min Rain = 0
KPD3 131903Z 05012KT 35/19 A3007 RMK A01 T03460187  RH  039%=      5-min Rain = 0
KPD3 131904Z 03006KT 34/19 A3007 RMK A01 T03430187  RH  040%=      5-min Rain = 0
KPD3 131905Z 02002KT 34/19 A3006 RMK A01 T03400188  RH  041%=      5-min Rain = 0
KPD3 131906Z 03002KT 34/19 A3006 RMK A01 T03390190  RH  041%=      5-min Rain = 0
KPD3 131907Z 02002KT 34/19 A3006 RMK A01 T03380188  RH  041%=      5-min Rain = 0
KPD3 131908Z 05004G9KT 34/19 A3006 RMK A01 T03350188  RH  042%=      5-min Rain = 0
KPD3 131909Z 06014G20KT 33/19 A3006 RMK A01 T03320187  RH  042%=      5-min Rain = 0
KPD3 131910Z 08012KT 33/19 A3006 RMK A01 T03310186  RH  042%=      5-min Rain = 0
KPD3 131911Z 09007G13KT 33/19 A3006 RMK A01 T03300187  RH  043%=      5-min Rain = 0
KPD3 131912Z 07011KT 33/18 A3006 RMK A01 T03290184  RH  042%=      5-min Rain = 0
KPD3 131913Z 07008KT 33/18 A3006 RMK A01 T03270178  RH  041%=      5-min Rain = 0
KPD3 131914Z 07008KT 33/18 A3006 RMK A01 T03270180  RH  042%=      5-min Rain = 0
KPD3 131915Z 09011KT 33/18 A3006 RMK A01 T03330181  RH  041%=      5-min Rain = 0
KPD3 131916Z 07013KT 34/18 A3006 RMK A01 T03380178  RH  039%=      5-min Rain = 0
KPD3 131917Z 07010KT 34/18 A3007 RMK A01 T03410178  RH  038%=      5-min Rain = 0
KPD3 131918Z 06011KT 34/18 A3007 RMK A01 T03400180  RH  039%=      5-min Rain = 0
KPD3 131919Z 06010KT 34/18 A3007 RMK A01 T03360181  RH  040%=      5-min Rain = 0
KPD3 131920Z 03008KT 34/18 A3007 RMK A01 T03350182  RH  040%=      5-min Rain = 0
KPD3 131921Z 02007KT 34/18 A3007 RMK A01 T03370182  RH  040%=      5-min Rain = 0
KPD3 131922Z 05007KT 34/18 A3007 RMK A01 T03390180  RH  039%=      5-min Rain = 0
KPD3 131923Z 07009G14KT 34/18 A3007 RMK A01 T03360177  RH  039%=      5-min Rain = 0
KPD3 131924Z 08014KT 33/17 A3007 RMK A01 T03340172  RH  038%=      5-min Rain = 0
KPD3 131925Z 06012KT 33/17 A3007 RMK A01 T03340170  RH  038%=      5-min Rain = 0
KPD3 131926Z 05009KT 34/17 A3007 RMK A01 T03350168  RH  037%=      5-min Rain = 0
KPD3 131927Z 07006KT 34/17 A3007 RMK A01 T03380171  RH  037%=      5-min Rain = 0
KPD3 131928Z 10008KT 34/17 A3007 RMK A01 T03380170  RH  037%=      5-min Rain = 0
KPD3 131929Z 09006KT 34/17 A3007 RMK A01 T03390171  RH  037%=      5-min Rain = 0
KPD3 131930Z 08007KT 34/18 A3007 RMK A01 T03370175  RH  038%=      5-min Rain = 0
KPD3 131931Z 06008KT 34/18 A3007 RMK A01 T03370178  RH  039%=      5-min Rain = 0
KPD3 131932Z 05009KT 34/18 A3007 RMK A01 T03380179  RH  039%=      5-min Rain = 0
KPD3 131933Z 06011KT 34/18 A3007 RMK A01 T03390179  RH  039%=      5-min Rain = 0
KPD3 131934Z 06011KT 34/18 A3007 RMK A01 T03390178  RH  038%=      5-min Rain = 0
KPD3 131935Z 05012KT 34/18 A3007 RMK A01 T03380178  RH  039%=      5-min Rain = 0
KPD3 131936Z 06013KT 34/18 A3007 RMK A01 T03410180  RH  038%=      5-min Rain = 0
KPD3 131937Z 07008KT 34/18 A3007 RMK A01 T03440179  RH  038%=      5-min Rain = 0
KPD3 131938Z 07005KT 34/18 A3006 RMK A01 T03420179  RH  038%=      5-min Rain = 0
KPD3 131939Z 07009KT 34/18 A3006 RMK A01 T03390178  RH  038%=      5-min Rain = 0
KPD3 131940Z 08009KT 34/18 A3006 RMK A01 T03380176  RH  038%=      5-min Rain = 0
KPD3 131941Z 07013KT 34/18 A3006 RMK A01 T03410176  RH  038%=      5-min Rain = 0
KPD3 131942Z 06008KT 35/18 A3007 RMK A01 T03480177  RH  036%=      5-min Rain = 0
KPD3 131943Z 05007KT 35/18 A3006 RMK A01 T03490176  RH  036%=      5-min Rain = 0
KPD3 131944Z 03006KT 34/18 A3006 RMK A01 T03440175  RH  037%=      5-min Rain = 0
KPD3 131945Z 01004KT 34/17 A3006 RMK A01 T03410170  RH  036%=      5-min Rain = 0
KPD3 131946Z 03007KT 34/17 A3006 RMK A01 T03390169  RH  036%=      5-min Rain = 0
KPD3 131947Z 03008KT 34/17 A3006 RMK A01 T03410170  RH  036%=      5-min Rain = 0
KPD3 131948Z 06011KT 34/17 A3006 RMK A01 T03440168  RH  035%=      5-min Rain = 0
KPD3 131949Z 07009KT 34/17 A3006 RMK A01 T03420171  RH  036%=      5-min Rain = 0
KPD3 131950Z 06005KT 34/17 A3006 RMK A01 T03390169  RH  036%=      5-min Rain = 0
KPD3 131951Z 04008KT 34/17 A3006 RMK A01 T03370168  RH  037%=      5-min Rain = 0
KPD3 131952Z 03005KT 34/17 A3006 RMK A01 T03370166  RH  036%=      5-min Rain = 0
KPD3 131953Z 08006KT 34/17 A3006 RMK A01 T03380166  RH  036%=      5-min Rain = 0
KPD3 131954Z 08006KT 34/17 A3006 RMK A01 T03400168  RH  036%=      5-min Rain = 0
KPD3 131955Z 07011G17KT 34/17 A3006 RMK A01 T03440172  RH  036%=      5-min Rain = 0
KPD3 131956Z 10008KT 34/18 A3006 RMK A01 T03420175  RH  037%=      5-min Rain = 0
KPD3 131957Z 10007KT 34/17 A3006 RMK A01 T03410173  RH  037%=      5-min Rain = 0
KPD3 131958Z 09011G16KT 34/17 A3006 RMK A01 T03390174  RH  038%=      5-min Rain = 0
KPD3 131959Z 09014KT 34/18 A3006 RMK A01 T03380175  RH  038%=      5-min Rain = 0
KPD3 132000Z 10011KT 34/18 A3006 RMK A01 T03390175  RH  038%=      5-min Rain = 0
KPD3 132001Z 10009G15KT 34/18 A3006 RMK A01 T03380177  RH  038%=      5-min Rain = 0
KPD3 132002Z 09008KT 34/18 A3006 RMK A01 T03390176  RH  038%=      5-min Rain = 0
KPD3 132003Z 08009KT 34/18 A3006 RMK A01 T03390177  RH  038%=      5-min Rain = 0
KPD3 132004Z 10009KT 34/18 A3006 RMK A01 T03410176  RH  037%=      5-min Rain = 0
KPD3 132005Z 10009KT 34/18 A3006 RMK A01 T03410175  RH  037%=      5-min Rain = 0
KPD3 132006Z 10005KT 34/18 A3005 RMK A01 T03400176  RH  038%=      5-min Rain = 0
KPD3 132007Z 07006KT 34/17 A3005 RMK A01 T03410173  RH  037%=      5-min Rain = 0
KPD3 132008Z 07007KT 34/17 A3005 RMK A01 T03390172  RH  037%=      5-min Rain = 0
KPD3 132009Z 08011KT 34/17 A3005 RMK A01 T03390170  RH  036%=      5-min Rain = 0
KPD3 132010Z 10008KT 34/17 A3005 RMK A01 T03400169  RH  036%=      5-min Rain = 0
KPD3 132011Z 10007KT 34/17 A3005 RMK A01 T03400170  RH  036%=      5-min Rain = 0
KPD3 132012Z 07011KT 34/17 A3005 RMK A01 T03420173  RH  037%=      5-min Rain = 0
KPD3 132013Z 06011KT 34/17 A3005 RMK A01 T03440172  RH  036%=      5-min Rain = 0
KPD3 132014Z 06012KT 35/17 A3005 RMK A01 T03460172  RH  036%=      5-min Rain = 0
KPD3 132015Z 04012KT 35/17 A3005 RMK A01 T03450172  RH  036%=      5-min Rain = 0
KPD3 132016Z 07007KT 34/17 A3005 RMK A01 T03420170  RH  036%=      5-min Rain = 0
KPD3 132017Z 06010G15KT 34/17 A3005 RMK A01 T03420171  RH  036%=      5-min Rain = 0
KPD3 132018Z 05009KT 34/17 A3005 RMK A01 T03430171  RH  036%=      5-min Rain = 0
KPD3 132019Z 03006KT 34/17 A3005 RMK A01 T03420170  RH  036%=      5-min Rain = 0
KPD3 132020Z 06007KT 34/17 A3005 RMK A01 T03410171  RH  036%=      5-min Rain = 0
KPD3 132021Z 07011G16KT 34/17 A3005 RMK A01 T03420172  RH  036%=      5-min Rain = 0
KPD3 132022Z 07014KT 35/17 A3005 RMK A01 T03450170  RH  035%=      5-min Rain = 0
KPD3 132023Z 06011KT 34/17 A3005 RMK A01 T03430169  RH  036%=      5-min Rain = 0
KPD3 132024Z 05011G17KT 34/17 A3005 RMK A01 T03420170  RH  036%=      5-min Rain = 0
KPD3 132025Z 04009KT 34/17 A3005 RMK A01 T03440169  RH  035%=      5-min Rain = 0
KPD3 132026Z 04008KT 35/17 A3005 RMK A01 T03450167  RH  035%=      5-min Rain = 0
KPD3 132027Z 05010KT 34/17 A3005 RMK A01 T03440171  RH  036%=      5-min Rain = 0
KPD3 132028Z 03007KT 35/18 A3005 RMK A01 T03450176  RH  037%=      5-min Rain = 0
KPD3 132029Z 05004KT 34/18 A3005 RMK A01 T03430175  RH  037%=      5-min Rain = 0
KPD3 132030Z 08008KT 34/18 A3005 RMK A01 T03420176  RH  037%=      5-min Rain = 0
KPD3 132031Z 09011KT 35/18 A3005 RMK A01 T03470177  RH  036%=      5-min Rain = 0
KPD3 132032Z 11010KT 34/17 A3005 RMK A01 T03440174  RH  036%=      5-min Rain = 0
KPD3 132033Z 09012KT 34/17 A3005 RMK A01 T03420174  RH  037%=      5-min Rain = 0
KPD3 132034Z 09014KT 34/17 A3005 RMK A01 T03430171  RH  036%=      5-min Rain = 0
KPD3 132035Z 10011G16KT 34/17 A3005 RMK A01 T03420173  RH  037%=      5-min Rain = 0
KPD3 132036Z 09011KT 34/17 A3005 RMK A01 T03410172  RH  037%=      5-min Rain = 0
KPD3 132037Z 08006KT 34/18 A3005 RMK A01 T03400175  RH  038%=      5-min Rain = 0
KPD3 132038Z 10004KT 34/18 A3005 RMK A01 T03380175  RH  038%=      5-min Rain = 0
KPD3 132039Z 11008KT 34/17 A3005 RMK A01 T03360168  RH  037%=      5-min Rain = 0
KPD3 132040Z 13006KT 34/17 A3005 RMK A01 T03370166  RH  036%=      5-min Rain = 0
KPD3 132041Z 11008KT 34/17 A3005 RMK A01 T03370170  RH  037%=      5-min Rain = 0
KPD3 132042Z 07007KT 34/17 A3005 RMK A01 T03380172  RH  037%=      5-min Rain = 0
KPD3 132043Z 05006KT 34/17 A3005 RMK A01 T03390173  RH  037%=      5-min Rain = 0
KPD3 132044Z 06007KT 34/17 A3005 RMK A01 T03400174  RH  037%=      5-min Rain = 0
KPD3 132045Z 06012KT 34/17 A3005 RMK A01 T03410172  RH  037%=      5-min Rain = 0
KPD3 132046Z 06010KT 34/17 A3005 RMK A01 T03420171  RH  036%=      5-min Rain = 0
KPD3 132047Z 06005KT 34/17 A3005 RMK A01 T03410168  RH  036%=      5-min Rain = 0
KPD3 132048Z 10010KT 34/17 A3005 RMK A01 T03400171  RH  037%=      5-min Rain = 0
KPD3 132049Z 10012KT 35/17 A3005 RMK A01 T03450167  RH  035%=      5-min Rain = 0
KPD3 132050Z 08010KT 35/17 A3005 RMK A01 T03460166  RH  034%=      5-min Rain = 0
KPD3 132051Z 07005KT 34/17 A3005 RMK A01 T03430165  RH  035%=      5-min Rain = 0
KPD3 132052Z 07008KT 34/17 A3005 RMK A01 T03410166  RH  035%=      5-min Rain = 0
KPD3 132053Z 06006KT 34/17 A3005 RMK A01 T03410167  RH  036%=      5-min Rain = 0
KPD3 132054Z 07003KT 34/17 A3005 RMK A01 T03380168  RH  036%=      5-min Rain = 0
KPD3 132055Z 10009G14KT 34/17 A3004 RMK A01 T03360169  RH  037%=      5-min Rain = 0
KPD3 132056Z 12009KT 34/17 A3004 RMK A01 T03390171  RH  037%=      5-min Rain = 0
KPD3 132057Z 13007KT 34/17 A3004 RMK A01 T03390172  RH  037%=      5-min Rain = 0
KPD3 132058Z 10010KT 34/17 A3004 RMK A01 T03400172  RH  037%=      5-min Rain = 0
KPD3 132059Z 07007G12KT 34/17 A3004 RMK A01 T03420173  RH  037%=      5-min Rain = 0
KPD3 132100Z 09008KT 34/18 A3004 RMK A01 T03410176  RH  038%=      5-min Rain = 0
KPD3 132101Z 11010KT 34/18 A3004 RMK A01 T03440176  RH  037%=      5-min Rain = 0
KPD3 132102Z 09008KT 35/18 A3004 RMK A01 T03450175  RH  036%=      5-min Rain = 0
KPD3 132103Z 10006KT 35/18 A3004 RMK A01 T03460175  RH  036%=      5-min Rain = 0
KPD3 132104Z 10006KT 35/17 A3004 RMK A01 T03450173  RH  036%=      5-min Rain = 0
KPD3 132105Z 09008KT 34/18 A3004 RMK A01 T03420177  RH  037%=      5-min Rain = 0
KPD3 132106Z 08008KT 34/18 A3004 RMK A01 T03420178  RH  038%=      5-min Rain = 0
KPD3 132107Z 06009KT 34/18 A3004 RMK A01 T03420178  RH  038%=      5-min Rain = 0
KPD3 132108Z 02006KT 34/18 A3004 RMK A01 T03400177  RH  038%=      5-min Rain = 0
KPD3 132109Z 01006KT 34/18 A3004 RMK A01 T03390176  RH  038%=      5-min Rain = 0
KPD3 132110Z 02003KT 34/18 A3004 RMK A01 T03390176  RH  038%=      5-min Rain = 0
KPD3 132111Z 06006KT 34/18 A3004 RMK A01 T03410178  RH  038%=      5-min Rain = 0
KPD3 132112Z 07006KT 34/18 A3004 RMK A01 T03440177  RH  037%=      5-min Rain = 0
KPD3 132113Z 07009G14KT 35/18 A3004 RMK A01 T03460178  RH  037%=      5-min Rain = 0
KPD3 132114Z 08008KT 35/18 A3004 RMK A01 T03480177  RH  036%=      5-min Rain = 0
KPD3 132115Z 07006KT 35/18 A3004 RMK A01 T03470178  RH  037%=      5-min Rain = 0
KPD3 132116Z 08010KT 35/18 A3004 RMK A01 T03460176  RH  036%=      5-min Rain = 0
KPD3 132117Z 09014KT 35/18 A3004 RMK A01 T03470177  RH  036%=      5-min Rain = 0
KPD3 132118Z 10010G16KT 35/18 A3004 RMK A01 T03510176  RH  035%=      5-min Rain = 0
KPD3 132119Z 10006KT 35/18 A3004 RMK A01 T03500176  RH  036%=      5-min Rain = 0
KPD3 132120Z 11009KT 35/18 A3004 RMK A01 T03500175  RH  036%=      5-min Rain = 0
KPD3 132121Z 07006KT 35/18 A3004 RMK A01 T03480175  RH  036%=      5-min Rain = 0
KPD3 132122Z 07006KT 35/18 A3003 RMK A01 T03460175  RH  036%=      5-min Rain = 0
KPD3 132123Z 12009KT 35/17 A3003 RMK A01 T03460172  RH  036%=      5-min Rain = 0
KPD3 132124Z 12008KT 35/17 A3003 RMK A01 T03460170  RH  035%=      5-min Rain = 0
KPD3 132125Z 11006KT 35/17 A3003 RMK A01 T03450170  RH  035%=      5-min Rain = 0
KPD3 132126Z 12004KT 35/17 A3003 RMK A01 T03450169  RH  035%=      5-min Rain = 0
KPD3 132127Z 07006KT 35/17 A3003 RMK A01 T03470170  RH  035%=      5-min Rain = 0
KPD3 132128Z 08005G10KT 35/17 A3003 RMK A01 T03470169  RH  035%=      5-min Rain = 0
KPD3 132129Z 09011KT 35/17 A3003 RMK A01 T03480166  RH  034%=      5-min Rain = 0
KPD3 132130Z 07010KT 35/17 A3003 RMK A01 T03480168  RH  034%=      5-min Rain = 0
KPD3 132131Z 07008KT 35/17 A3003 RMK A01 T03460168  RH  035%=      5-min Rain = 0
KPD3 132132Z 05009KT 35/17 A3003 RMK A01 T03470170  RH  035%=      5-min Rain = 0
KPD3 132133Z 06012KT 35/17 A3003 RMK A01 T03480169  RH  035%=      5-min Rain = 0
KPD3 132134Z 07012KT 35/17 A3003 RMK A01 T03480167  RH  034%=      5-min Rain = 0
KPD3 132135Z 07011KT 35/16 A3003 RMK A01 T03470164  RH  034%=      5-min Rain = 0
KPD3 132136Z 06009KT 35/16 A3003 RMK A01 T03470162  RH  033%=      5-min Rain = 0
KPD3 132137Z 07009KT 35/16 A3003 RMK A01 T03470163  RH  034%=      5-min Rain = 0
KPD3 132138Z 06007KT 35/16 A3003 RMK A01 T03470162  RH  033%=      5-min Rain = 0
KPD3 132139Z 06005KT 35/16 A3003 RMK A01 T03470163  RH  033%=      5-min Rain = 0
KPD3 132140Z 07003KT 34/17 A3003 RMK A01 T03440165  RH  034%=      5-min Rain = 0
KPD3 132141Z 06003KT 34/17 A3003 RMK A01 T03440166  RH  035%=      5-min Rain = 0
KPD3 132142Z 05006KT 34/17 A3003 RMK A01 T03430166  RH  035%=      5-min Rain = 0
KPD3 132143Z 04007KT 34/17 A3003 RMK A01 T03440169  RH  035%=      5-min Rain = 0
KPD3 132144Z 04007KT 35/17 A3003 RMK A01 T03460169  RH  035%=      5-min Rain = 0
KPD3 132145Z 09010KT 35/17 A3003 RMK A01 T03510171  RH  034%=      5-min Rain = 0
KPD3 132146Z 08009KT 35/17 A3003 RMK A01 T03520168  RH  034%=      5-min Rain = 0
KPD3 132147Z 08011KT 35/17 A3003 RMK A01 T03530167  RH  033%=      5-min Rain = 0
KPD3 132148Z 11009KT 35/17 A3003 RMK A01 T03510167  RH  033%=      5-min Rain = 0
KPD3 132149Z 11010KT 35/17 A3003 RMK A01 T03530165  RH  033%=      5-min Rain = 0
KPD3 132150Z 12009KT 35/16 A3003 RMK A01 T03540162  RH  032%=      5-min Rain = 0
KPD3 132151Z 13008KT 35/16 A3002 RMK A01 T03500159  RH  032%=      5-min Rain = 0
KPD3 132152Z 07008KT 35/16 A3002 RMK A01 T03490160  RH  032%=      5-min Rain = 0
KPD3 132153Z 09011KT 35/16 A3002 RMK A01 T03510164  RH  033%=      5-min Rain = 0
KPD3 132154Z 08009KT 35/16 A3002 RMK A01 T03520162  RH  032%=      5-min Rain = 0
KPD3 132155Z 08008G13KT 35/16 A3002 RMK A01 T03510162  RH  033%=      5-min Rain = 0
KPD3 132156Z 07007KT 35/16 A3002 RMK A01 T03490162  RH  033%=      5-min Rain = 0
KPD3 132157Z 05009KT 35/17 A3002 RMK A01 T03490171  RH  035%=      5-min Rain = 0
KPD3 132158Z 06007KT 35/17 A3002 RMK A01 T03500173  RH  035%=      5-min Rain = 0
KPD3 132159Z 06007KT 35/17 A3002 RMK A01 T03510171  RH  035%=      5-min Rain = 0
KPD3 132200Z 06006KT 35/17 A3002 RMK A01 T03510169  RH  034%=      5-min Rain = 0
KPD3 132201Z 09007KT 35/16 A3002 RMK A01 T03490164  RH  033%=      5-min Rain = 0
KPD3 132202Z 08011KT 35/16 A3002 RMK A01 T03500160  RH  032%=      5-min Rain = 0
KPD3 132203Z 06008KT 35/16 A3002 RMK A01 T03500157  RH  032%=      5-min Rain = 0
KPD3 132204Z 06008KT 35/16 A3002 RMK A01 T03510159  RH  032%=      5-min Rain = 0
KPD3 132205Z 06010KT 35/16 A3002 RMK A01 T03520164  RH  033%=      5-min Rain = 0
KPD3 132206Z 08010KT 35/17 A3002 RMK A01 T03500169  RH  034%=      5-min Rain = 0
KPD3 132207Z 07009KT 35/17 A3002 RMK A01 T03490170  RH  035%=      5-min Rain = 0
KPD3 132208Z 07009KT 35/17 A3002 RMK A01 T03460168  RH  035%=      5-min Rain = 0
KPD3 132209Z 06008KT 35/17 A3002 RMK A01 T03450170  RH  035%=      5-min Rain = 0
KPD3 132210Z 06006KT 35/17 A3002 RMK A01 T03460170  RH  035%=      5-min Rain = 0
KPD3 132211Z 08007KT 35/17 A3002 RMK A01 T03460171  RH  035%=      5-min Rain = 0
KPD3 132212Z 09006KT 35/17 A3002 RMK A01 T03470171  RH  035%=      5-min Rain = 0
KPD3 132213Z 10008KT 35/17 A3002 RMK A01 T03500172  RH  035%=      5-min Rain = 0
KPD3 132214Z 10007KT 35/17 A3002 RMK A01 T03490170  RH  035%=      5-min Rain = 0
KPD3 132215Z 09011KT 35/17 A3002 RMK A01 T03470169  RH  035%=      5-min Rain = 0
KPD3 132216Z 08011KT 35/17 A3002 RMK A01 T03490168  RH  034%=      5-min Rain = 0
KPD3 132217Z 08011KT 35/17 A3002 RMK A01 T03500170  RH  034%=      5-min Rain = 0
KPD3 132218Z 09007KT 35/17 A3002 RMK A01 T03460170  RH  035%=      5-min Rain = 0
KPD3 132219Z 07009KT 35/17 A3002 RMK A01 T03450171  RH  035%=      5-min Rain = 0
KPD3 132220Z 08010KT 34/17 A3002 RMK A01 T03440170  RH  036%=      5-min Rain = 0
KPD3 132221Z 10010G15KT 34/17 A3002 RMK A01 T03410172  RH  037%=      5-min Rain = 0
KPD3 132222Z 11011KT 34/18 A3002 RMK A01 T03400183  RH  040%=      5-min Rain = 0
KPD3 132223Z 12011KT 34/19 A3002 RMK A01 T03400186  RH  040%=      5-min Rain = 0
KPD3 132224Z 12012KT 34/19 A3002 RMK A01 T03410186  RH  040%=      5-min Rain = 0
KPD3 132225Z 11010KT 34/19 A3002 RMK A01 T03410186  RH  040%=      5-min Rain = 0
KPD3 132226Z 12006KT 34/19 A3002 RMK A01 T03400186  RH  040%=      5-min Rain = 0
KPD3 132227Z 12005G10KT 34/19 A3002 RMK A01 T03400188  RH  041%=      5-min Rain = 0
KPD3 132228Z 13014KT 35/19 A3002 RMK A01 T03450189  RH  040%=      5-min Rain = 0
KPD3 132229Z 10011KT 35/18 A3002 RMK A01 T03480181  RH  037%=      5-min Rain = 0
KPD3 132230Z 11014KT 35/18 A3002 RMK A01 T03490182  RH  037%=      5-min Rain = 0
KPD3 132231Z 11013KT 35/18 A3002 RMK A01 T03490182  RH  037%=      5-min Rain = 0
KPD3 132232Z 13012KT 35/18 A3002 RMK A01 T03460184  RH  038%=      5-min Rain = 0
KPD3 132233Z 11015KT 35/18 A3002 RMK A01 T03470183  RH  038%=      5-min Rain = 0
KPD3 132234Z 11016KT 34/18 A3002 RMK A01 T03440180  RH  038%=      5-min Rain = 0
KPD3 132235Z 12014KT 34/18 A3002 RMK A01 T03380180  RH  039%=      5-min Rain = 0
KPD3 132236Z 11012KT 33/18 A3002 RMK A01 T03340181  RH  040%=      5-min Rain = 0
KPD3 132237Z 11012KT 33/18 A3002 RMK A01 T03310182  RH  041%=      5-min Rain = 0
KPD3 132238Z 11011KT 33/18 A3002 RMK A01 T03310183  RH  042%=      5-min Rain = 0
KPD3 132239Z 12010KT 33/19 A3002 RMK A01 T03320185  RH  042%=      5-min Rain = 0
KPD3 132240Z 14011KT 34/19 A3002 RMK A01 T03350185  RH  041%=      5-min Rain = 0
KPD3 132241Z 13015KT 34/19 A3002 RMK A01 T03380187  RH  041%=      5-min Rain = 0
KPD3 132242Z 13014KT 34/19 A3002 RMK A01 T03410187  RH  040%=      5-min Rain = 0
KPD3 132243Z 13013KT 34/19 A3002 RMK A01 T03410186  RH  040%=      5-min Rain = 0
KPD3 132244Z 14009KT 34/19 A3002 RMK A01 T03410186  RH  040%=      5-min Rain = 0
KPD3 132245Z 11005KT 34/19 A3002 RMK A01 T03400185  RH  040%=      5-min Rain = 0
KPD3 132246Z 13007G14KT 34/19 A3002 RMK A01 T03370185  RH  040%=      5-min Rain = 0
KPD3 132247Z 14015KT 34/19 A3002 RMK A01 T03390186  RH  040%=      5-min Rain = 0
KPD3 132248Z 11012KT 34/19 A3002 RMK A01 T03430186  RH  040%=      5-min Rain = 0
KPD3 132249Z 10012KT 34/19 A3002 RMK A01 T03440186  RH  039%=      5-min Rain = 0
KPD3 132250Z 11013KT 35/19 A3002 RMK A01 T03450186  RH  039%=      5-min Rain = 0
KPD3 132251Z 09014KT 35/19 A3002 RMK A01 T03450186  RH  039%=      5-min Rain = 0
KPD3 132252Z 10010KT 34/19 A3002 RMK A01 T03410185  RH  040%=      5-min Rain = 0
KPD3 132253Z 12007KT 34/19 A3002 RMK A01 T03360185  RH  041%=      5-min Rain = 0
KPD3 132254Z 10008G13KT 33/19 A3002 RMK A01 T03340186  RH  041%=      5-min Rain = 0
KPD3 132255Z 12012KT 33/19 A3002 RMK A01 T03340185  RH  041%=      5-min Rain = 0
KPD3 132256Z 14011KT 33/19 A3002 RMK A01 T03330185  RH  042%=      5-min Rain = 0
KPD3 132257Z 14012G17KT 33/19 A3002 RMK A01 T03330186  RH  042%=      5-min Rain = 0
KPD3 132258Z 12014KT 34/19 A3002 RMK A01 T03370187  RH  041%=      5-min Rain = 0
KPD3 132259Z 12013KT 34/19 A3002 RMK A01 T03400187  RH  041%=      5-min Rain = 0
KPD3 132300Z 13012KT 34/19 A3002 RMK A01 T03400186  RH  040%=      5-min Rain = 0
KPD3 132301Z 13012KT 34/19 A3002 RMK A01 T03360185  RH  041%=      5-min Rain = 0
KPD3 132302Z 14007KT 33/19 A3002 RMK A01 T03320185  RH  042%=      5-min Rain = 0
KPD3 132303Z 14010G16KT 33/19 A3002 RMK A01 T03320186  RH  042%=      5-min Rain = 0
KPD3 132304Z 14011KT 34/19 A3002 RMK A01 T03360187  RH  041%=      5-min Rain = 0
KPD3 132305Z 14010KT 34/19 A3002 RMK A01 T03390187  RH  041%=      5-min Rain = 0
KPD3 132306Z 13012KT 34/19 A3002 RMK A01 T03390187  RH  041%=      5-min Rain = 0
KPD3 132307Z 13011KT 34/19 A3002 RMK A01 T03390187  RH  041%=      5-min Rain = 0
KPD3 132308Z 11013KT 34/19 A3002 RMK A01 T03390187  RH  041%=      5-min Rain = 0
KPD3 132309Z 10011KT 34/19 A3002 RMK A01 T03390188  RH  041%=      5-min Rain = 0
KPD3 132310Z 13011KT 34/19 A3002 RMK A01 T03380188  RH  041%=      5-min Rain = 0
KPD3 132311Z 13014KT 34/19 A3002 RMK A01 T03360188  RH  042%=      5-min Rain = 0
KPD3 132312Z 12013KT 34/19 A3002 RMK A01 T03380189  RH  042%=      5-min Rain = 0
KPD3 132313Z 11012KT 34/19 A3002 RMK A01 T03380189  RH  041%=      5-min Rain = 0
KPD3 132314Z 13012KT 34/19 A3002 RMK A01 T03380189  RH  042%=      5-min Rain = 0
KPD3 132315Z 14011KT 34/19 A3002 RMK A01 T03390189  RH  041%=      5-min Rain = 0
KPD3 132316Z 14012KT 34/19 A3002 RMK A01 T03380189  RH  041%=      5-min Rain = 0
KPD3 132317Z 15012KT 34/19 A3002 RMK A01 T03360189  RH  042%=      5-min Rain = 0
KPD3 132318Z 14017KT 34/19 A3002 RMK A01 T03350189  RH  042%=      5-min Rain = 0
KPD3 132319Z 14012KT 34/19 A3002 RMK A01 T03370189  RH  042%=      5-min Rain = 0
KPD3 132320Z 15013G18KT 34/19 A3002 RMK A01 T03370189  RH  042%=      5-min Rain = 0
KPD3 132321Z 15010KT 34/19 A3002 RMK A01 T03370190  RH  042%=      5-min Rain = 0
KPD3 132322Z 15011KT 34/19 A3002 RMK A01 T03350190  RH  042%=      5-min Rain = 0
KPD3 132323Z 14013KT 34/19 A3002 RMK A01 T03350190  RH  042%=      5-min Rain = 0
KPD3 132324Z 13012KT 34/19 A3002 RMK A01 T03360190  RH  042%=      5-min Rain = 0
KPD3 132325Z 11013KT 34/19 A3002 RMK A01 T03370189  RH  042%=      5-min Rain = 0
KPD3 132326Z 10014G19KT 34/19 A3002 RMK A01 T03360189  RH  042%=      5-min Rain = 0
KPD3 132327Z 12007KT 33/19 A3002 RMK A01 T03320187  RH  042%=      5-min Rain = 0
KPD3 132328Z 13009KT 33/19 A3002 RMK A01 T03310188  RH  043%=      5-min Rain = 0
KPD3 132329Z 15009KT 33/19 A3002 RMK A01 T03320188  RH  042%=      5-min Rain = 0
KPD3 132330Z 14010KT 33/19 A3002 RMK A01 T03330188  RH  042%=      5-min Rain = 0
KPD3 132331Z 14011KT 33/19 A3002 RMK A01 T03340189  RH  042%=      5-min Rain = 0
KPD3 132332Z 13010KT 34/19 A3002 RMK A01 T03350189  RH  042%=      5-min Rain = 0
KPD3 132333Z 12011KT 34/19 A3002 RMK A01 T03360189  RH  042%=      5-min Rain = 0
KPD3 132334Z 13010KT 34/19 A3002 RMK A01 T03370189  RH  042%=      5-min Rain = 0
KPD3 132335Z 13012G17KT 34/19 A3002 RMK A01 T03370189  RH  042%=      5-min Rain = 0
KPD3 132336Z 12013KT 34/19 A3002 RMK A01 T03360188  RH  042%=      5-min Rain = 0
KPD3 132337Z 13014KT 34/19 A3002 RMK A01 T03360188  RH  042%=      5-min Rain = 0
KPD3 132338Z 12014KT 34/19 A3002 RMK A01 T03350188  RH  042%=      5-min Rain = 0
KPD3 132339Z 12010KT 33/19 A3002 RMK A01 T03330188  RH  042%=      5-min Rain = 0
KPD3 132340Z 13009KT 33/19 A3002 RMK A01 T03330188  RH  042%=      5-min Rain = 0
KPD3 132341Z 13011KT 34/19 A3002 RMK A01 T03370190  RH  042%=      5-min Rain = 0
KPD3 132342Z 13010KT 34/19 A3002 RMK A01 T03370189  RH  042%=      5-min Rain = 0
KPD3 132343Z 12010KT 34/19 A3002 RMK A01 T03360188  RH  042%=      5-min Rain = 0
KPD3 132344Z 12013KT 33/19 A3002 RMK A01 T03330188  RH  042%=      5-min Rain = 0
KPD3 132345Z 12010KT 33/19 A3002 RMK A01 T03310188  RH  043%=      5-min Rain = 0
KPD3 132346Z 13010KT 33/19 A3002 RMK A01 T03300188  RH  043%=      5-min Rain = 0
KPD3 132347Z 14011KT 33/19 A3002 RMK A01 T03300188  RH  043%=      5-min Rain = 0
KPD3 132348Z 13013KT 33/19 A3002 RMK A01 T03310188  RH  043%=      5-min Rain = 0
KPD3 132349Z 11012KT 33/19 A3003 RMK A01 T03310187  RH  043%=      5-min Rain = 0
KPD3 132350Z 12011KT 33/19 A3003 RMK A01 T03300188  RH  043%=      5-min Rain = 0
KPD3 132351Z 12013KT 33/19 A3003 RMK A01 T03290188  RH  043%=      5-min Rain = 0
KPD3 132352Z 12011KT 33/19 A3003 RMK A01 T03290188  RH  043%=      5-min Rain = 0
KPD3 132353Z 13010KT 33/19 A3003 RMK A01 T03280188  RH  043%=      5-min Rain = 0
KPD3 132354Z 14011KT 33/19 A3003 RMK A01 T03280187  RH  044%=      5-min Rain = 0
KPD3 132355Z 13010KT 33/19 A3003 RMK A01 T03270187  RH  044%=      5-min Rain = 0
KPD3 132356Z 13012KT 33/19 A3003 RMK A01 T03270187  RH  044%=      5-min Rain = 0
KPD3 132357Z 13011KT 33/19 A3003 RMK A01 T03270187  RH  044%=      5-min Rain = 0
KPD3 132358Z 13012KT 33/19 A3003 RMK A01 T03270188  RH  044%=      5-min Rain = 0
KPD3 132359Z 12011KT 33/19 A3003 RMK A01 T03270188  RH  044%=      5-min Rain = 0
KPD3 140000Z 13011KT 33/19 A3003 RMK A01 T03260188  RH  044%=      5-min Rain = 0
KPD3 140001Z 13007KT 33/19 A3003 RMK A01 T03260188  RH  044%=      5-min Rain = 0
KPD3 140002Z 13008KT 33/19 A3003 RMK A01 T03260188  RH  044%=      5-min Rain = 0
KPD3 140003Z 12012KT 33/19 A3003 RMK A01 T03270188  RH  044%=      5-min Rain = 0
KPD3 140004Z 11011KT 33/19 A3003 RMK A01 T03270189  RH  044%=      5-min Rain = 0
KPD3 140005Z 12010KT 33/19 A3003 RMK A01 T03260188  RH  044%=      5-min Rain = 0
KPD3 140006Z 13010KT 33/19 A3003 RMK A01 T03250188  RH  044%=      5-min Rain = 0
KPD3 140007Z 13010KT 33/19 A3003 RMK A01 T03250188  RH  044%=      5-min Rain = 0
KPD3 140008Z 13010KT 33/19 A3003 RMK A01 T03250189  RH  044%=      5-min Rain = 0
KPD3 140009Z 12014KT 33/19 A3003 RMK A01 T03250188  RH  044%=      5-min Rain = 0
KPD3 140010Z 13012KT 33/19 A3003 RMK A01 T03250188  RH  044%=      5-min Rain = 0
KPD3 140011Z 13012KT 32/19 A3003 RMK A01 T03240187  RH  044%=      5-min Rain = 0
KPD3 140012Z 13011KT 32/19 A3003 RMK A01 T03240187  RH  044%=      5-min Rain = 0
KPD3 140013Z 13010KT 32/19 A3003 RMK A01 T03240188  RH  045%=      5-min Rain = 0
KPD3 140014Z 13012KT 32/19 A3003 RMK A01 T03240187  RH  044%=      5-min Rain = 0
KPD3 140015Z 14010KT 32/19 A3003 RMK A01 T03240187  RH  044%=      5-min Rain = 0
KPD3 140016Z 12011KT 32/19 A3003 RMK A01 T03240188  RH  044%=      5-min Rain = 0
KPD3 140017Z 11011KT 32/19 A3003 RMK A01 T03240187  RH  044%=      5-min Rain = 0
KPD3 140018Z 11011KT 32/19 A3003 RMK A01 T03240188  RH  045%=      5-min Rain = 0
KPD3 140019Z 12010KT 32/19 A3003 RMK A01 T03220187  RH  045%=      5-min Rain = 0
KPD3 140020Z 13009KT 32/19 A3003 RMK A01 T03220188  RH  045%=      5-min Rain = 0
KPD3 140021Z 12009KT 32/19 A3003 RMK A01 T03220187  RH  045%=      5-min Rain = 0
KPD3 140022Z 13009KT 32/19 A3003 RMK A01 T03220188  RH  045%=      5-min Rain = 0
KPD3 140023Z 12010KT 32/19 A3003 RMK A01 T03220188  RH  045%=      5-min Rain = 0
KPD3 140024Z 12010KT 32/19 A3003 RMK A01 T03220188  RH  045%=      5-min Rain = 0
KPD3 140025Z 12011KT 32/19 A3003 RMK A01 T03220188  RH  045%=      5-min Rain = 0
KPD3 140026Z 13011KT 32/19 A3003 RMK A01 T03220187  RH  045%=      5-min Rain = 0
KPD3 140027Z 13010KT 32/19 A3003 RMK A01 T03210187  RH  045%=      5-min Rain = 0
KPD3 140028Z 14011KT 32/19 A3003 RMK A01 T03200187  RH  045%=      5-min Rain = 0
KPD3 140029Z 13012KT 32/19 A3003 RMK A01 T03200187  RH  045%=      5-min Rain = 0
KPD3 140030Z 12012KT 32/19 A3003 RMK A01 T03200187  RH  045%=      5-min Rain = 0
KPD3 140031Z 13012KT 32/19 A3003 RMK A01 T03180187  RH  046%=      5-min Rain = 0
KPD3 140032Z 13012KT 32/19 A3003 RMK A01 T03180187  RH  046%=      5-min Rain = 0
KPD3 140033Z 12011KT 32/19 A3003 RMK A01 T03180187  RH  046%=      5-min Rain = 0
KPD3 140034Z 12011KT 32/19 A3003 RMK A01 T03180187  RH  046%=      5-min Rain = 0
KPD3 140035Z 13013KT 32/19 A3003 RMK A01 T03180187  RH  046%=      5-min Rain = 0
KPD3 140036Z 13011KT 32/19 A3003 RMK A01 T03180187  RH  046%=      5-min Rain = 0
KPD3 140037Z 13012KT 32/19 A3003 RMK A01 T03170187  RH  046%=      5-min Rain = 0
KPD3 140038Z 13010KT 32/19 A3003 RMK A01 T03170187  RH  046%=      5-min Rain = 0
KPD3 140039Z 13009KT 32/19 A3003 RMK A01 T03160188  RH  046%=      5-min Rain = 0
KPD3 140040Z 13011KT 32/19 A3003 RMK A01 T03160188  RH  046%=      5-min Rain = 0
KPD3 140041Z 12012KT 32/19 A3003 RMK A01 T03160187  RH  046%=      5-min Rain = 0
KPD3 140042Z 13014KT 32/19 A3003 RMK A01 T03170188  RH  046%=      5-min Rain = 0
KPD3 140043Z 13011KT 32/19 A3003 RMK A01 T03160187  RH  047%=      5-min Rain = 0
KPD3 140044Z 13011KT 32/19 A3003 RMK A01 T03150188  RH  047%=      5-min Rain = 0
KPD3 140045Z 13011KT 32/19 A3003 RMK A01 T03150187  RH  047%=      5-min Rain = 0
KPD3 140046Z 13010KT 31/19 A3003 RMK A01 T03140187  RH  047%=      5-min Rain = 0
KPD3 140047Z 14011KT 31/19 A3003 RMK A01 T03140187  RH  047%=      5-min Rain = 0
KPD3 140048Z 14013KT 31/19 A3003 RMK A01 T03130187  RH  047%=      5-min Rain = 0
KPD3 140049Z 14011KT 31/19 A3003 RMK A01 T03120186  RH  047%=      5-min Rain = 0
KPD3 140050Z 14010KT 31/19 A3003 RMK A01 T03110186  RH  047%=      5-min Rain = 0
KPD3 140051Z 13010KT 31/19 A3003 RMK A01 T03110186  RH  047%=      5-min Rain = 0
KPD3 140052Z 13010KT 31/19 A3003 RMK A01 T03110186  RH  047%=      5-min Rain = 0
KPD3 140053Z 14011KT 31/19 A3003 RMK A01 T03110186  RH  048%=      5-min Rain = 0
KPD3 140054Z 14012KT 31/19 A3003 RMK A01 T03110186  RH  048%=      5-min Rain = 0
KPD3 140055Z 13011KT 31/19 A3003 RMK A01 T03110187  RH  048%=      5-min Rain = 0
KPD3 140056Z 13010KT 31/19 A3003 RMK A01 T03100186  RH  048%=      5-min Rain = 0
KPD3 140057Z 13012KT 31/19 A3003 RMK A01 T03100186  RH  048%=      5-min Rain = 0
KPD3 140058Z 13010KT 31/19 A3003 RMK A01 T03100186  RH  048%=      5-min Rain = 0
KPD3 140059Z 13010KT 31/19 A3004 RMK A01 T03090186  RH  048%=      5-min Rain = 0
KPD3 140100Z 14010KT 31/19 A3004 RMK A01 T03090186  RH  048%=      5-min Rain = 0
KPD3 140101Z 14009KT 31/19 A3004 RMK A01 T03080186  RH  048%=      5-min Rain = 0
KPD3 140102Z 13010KT 31/19 A3004 RMK A01 T03080186  RH  048%=      5-min Rain = 0
KPD3 140103Z 13008KT 31/19 A3004 RMK A01 T03080186  RH  048%=      5-min Rain = 0
KPD3 140104Z 13010KT 31/19 A3004 RMK A01 T03080186  RH  048%=      5-min Rain = 0
KPD3 140105Z 13011KT 31/19 A3004 RMK A01 T03070186  RH  048%=      5-min Rain = 0
KPD3 140106Z 13012KT 31/19 A3004 RMK A01 T03070186  RH  048%=      5-min Rain = 0
KPD3 140107Z 13012KT 31/19 A3004 RMK A01 T03060186  RH  049%=      5-min Rain = 0
KPD3 140108Z 13010KT 31/19 A3004 RMK A01 T03060185  RH  049%=      5-min Rain = 0
KPD3 140109Z 12008KT 31/19 A3004 RMK A01 T03060185  RH  049%=      5-min Rain = 0
KPD3 140110Z 13007KT 31/19 A3004 RMK A01 T03050185  RH  049%=      5-min Rain = 0
KPD3 140111Z 13008KT 30/19 A3004 RMK A01 T03040185  RH  049%=      5-min Rain = 0
KPD3 140112Z 13009KT 30/19 A3004 RMK A01 T03040185  RH  049%=      5-min Rain = 0
KPD3 140113Z 12008KT 30/19 A3004 RMK A01 T03030185  RH  049%=      5-min Rain = 0
KPD3 140114Z 13008KT 30/19 A3004 RMK A01 T03030185  RH  049%=      5-min Rain = 0
KPD3 140115Z 12009KT 30/19 A3004 RMK A01 T03020185  RH  049%=      5-min Rain = 0
KPD3 140116Z 13008KT 30/19 A3004 RMK A01 T03020185  RH  049%=      5-min Rain = 0
KPD3 140117Z 13009KT 30/19 A3004 RMK A01 T03010185  RH  050%=      5-min Rain = 0
KPD3 140118Z 13009KT 30/18 A3004 RMK A01 T03010184  RH  050%=      5-min Rain = 0
KPD3 140119Z 12009KT 30/18 A3005 RMK A01 T03000184  RH  050%=      5-min Rain = 0
KPD3 140120Z 13007KT 30/18 A3005 RMK A01 T03000184  RH  050%=      5-min Rain = 0
KPD3 140121Z 13008KT 30/18 A3005 RMK A01 T02990184  RH  050%=      5-min Rain = 0
KPD3 140122Z 13008KT 30/18 A3005 RMK A01 T02990184  RH  050%=      5-min Rain = 0
KPD3 140123Z 13008KT 30/18 A3005 RMK A01 T02980184  RH  050%=      5-min Rain = 0
KPD3 140124Z 13009KT 30/18 A3005 RMK A01 T02970184  RH  051%=      5-min Rain = 0
KPD3 140125Z 13009KT 30/18 A3005 RMK A01 T02970184  RH  051%=      5-min Rain = 0
KPD3 140126Z 13008KT 30/18 A3005 RMK A01 T02970183  RH  051%=      5-min Rain = 0
KPD3 140127Z 13009KT 30/18 A3005 RMK A01 T02970184  RH  051%=      5-min Rain = 0
KPD3 140128Z 13007KT 30/18 A3005 RMK A01 T02960183  RH  051%=      5-min Rain = 0
KPD3 140129Z 12007KT 30/18 A3005 RMK A01 T02960183  RH  051%=      5-min Rain = 0
KPD3 140130Z 13007KT 30/18 A3005 RMK A01 T02960183  RH  051%=      5-min Rain = 0
KPD3 140131Z 12006KT 30/18 A3005 RMK A01 T02950183  RH  051%=      5-min Rain = 0
KPD3 140132Z 12006KT 29/18 A3005 RMK A01 T02940183  RH  051%=      5-min Rain = 0
KPD3 140133Z 12006KT 29/18 A3005 RMK A01 T02930183  RH  051%=      5-min Rain = 0
KPD3 140134Z 12007KT 29/18 A3005 RMK A01 T02920183  RH  052%=      5-min Rain = 0
KPD3 140135Z 12007KT 29/18 A3005 RMK A01 T02920183  RH  052%=      5-min Rain = 0
KPD3 140136Z 11006KT 29/18 A3006 RMK A01 T02910182  RH  052%=      5-min Rain = 0
KPD3 140137Z 11006KT 29/18 A3006 RMK A01 T02900182  RH  052%=      5-min Rain = 0
KPD3 140138Z 11006KT 29/18 A3006 RMK A01 T02890182  RH  052%=      5-min Rain = 0
KPD3 140139Z 11006KT 29/18 A3006 RMK A01 T02890182  RH  052%=      5-min Rain = 0
KPD3 140140Z 11006KT 29/18 A3006 RMK A01 T02880182  RH  053%=      5-min Rain = 0
KPD3 140141Z 11005KT 29/18 A3006 RMK A01 T02880182  RH  053%=      5-min Rain = 0
KPD3 140142Z 11006KT 29/18 A3006 RMK A01 T02870181  RH  053%=      5-min Rain = 0
KPD3 140143Z 11006KT 29/18 A3006 RMK A01 T02860181  RH  053%=      5-min Rain = 0
KPD3 140144Z 10005KT 29/18 A3006 RMK A01 T02850181  RH  053%=      5-min Rain = 0
KPD3 140145Z 11005KT 28/18 A3006 RMK A01 T02840181  RH  054%=      5-min Rain = 0
KPD3 140146Z 11005KT 28/18 A3006 RMK A01 T02830181  RH  054%=      5-min Rain = 0
KPD3 140147Z 11005KT 28/18 A3006 RMK A01 T02820180  RH  054%=      5-min Rain = 0
KPD3 140148Z 11005KT 28/18 A3006 RMK A01 T02820180  RH  054%=      5-min Rain = 0
KPD3 140149Z 11005KT 28/18 A3006 RMK A01 T02810180  RH  054%=      5-min Rain = 0
KPD3 140150Z 11005KT 28/18 A3006 RMK A01 T02810180  RH  054%=      5-min Rain = 0
KPD3 140151Z 11005KT 28/18 A3006 RMK A01 T02800180  RH  055%=      5-min Rain = 0
KPD3 140152Z 12005KT 28/18 A3006 RMK A01 T02790180  RH  055%=      5-min Rain = 0
KPD3 140153Z 11005KT 28/18 A3006 RMK A01 T02780180  RH  055%=      5-min Rain = 0
KPD3 140154Z 11005KT 28/18 A3006 RMK A01 T02780180  RH  055%=      5-min Rain = 0
KPD3 140155Z 11005KT 28/18 A3007 RMK A01 T02770180  RH  055%=      5-min Rain = 0
KPD3 140156Z 11006KT 28/18 A3007 RMK A01 T02760179  RH  055%=      5-min Rain = 0
KPD3 140157Z 11006KT 28/18 A3007 RMK A01 T02750179  RH  056%=      5-min Rain = 0
KPD3 140158Z 12006KT 27/18 A3007 RMK A01 T02740179  RH  056%=      5-min Rain = 0
KPD3 140159Z 12006KT 27/18 A3007 RMK A01 T02740179  RH  056%=      5-min Rain = 0
KPD3 140200Z 12006KT 27/18 A3007 RMK A01 T02730179  RH  056%=      5-min Rain = 0
KPD3 140201Z 12006KT 27/18 A3007 RMK A01 T02730179  RH  057%=      5-min Rain = 0
KPD3 140202Z 11005KT 27/18 A3007 RMK A01 T02730179  RH  057%=      5-min Rain = 0
KPD3 140203Z 11005KT 27/18 A3007 RMK A01 T02730179  RH  057%=      5-min Rain = 0
KPD3 140204Z 11005KT 27/18 A3007 RMK A01 T02720179  RH  057%=      5-min Rain = 0
KPD3 140205Z 11005KT 27/18 A3008 RMK A01 T02720179  RH  057%=      5-min Rain = 0
KPD3 140206Z 11005KT 27/18 A3008 RMK A01 T02710179  RH  057%=      5-min Rain = 0
KPD3 140207Z 10005KT 27/18 A3008 RMK A01 T02700179  RH  057%=      5-min Rain = 0
KPD3 140208Z 10005KT 27/18 A3008 RMK A01 T02700179  RH  057%=      5-min Rain = 0
KPD3 140209Z 10004KT 27/18 A3008 RMK A01 T02690179  RH  058%=      5-min Rain = 0
KPD3 140210Z 09004KT 27/18 A3008 RMK A01 T02690178  RH  058%=      5-min Rain = 0
KPD3 140211Z 09004KT 27/18 A3008 RMK A01 T02680178  RH  058%=      5-min Rain = 0
KPD3 140212Z 09004KT 27/18 A3008 RMK A01 T02680178  RH  058%=      5-min Rain = 0
KPD3 140213Z 09004KT 27/18 A3008 RMK A01 T02670178  RH  058%=      5-min Rain = 0
KPD3 140214Z 09005KT 27/18 A3008 RMK A01 T02670178  RH  058%=      5-min Rain = 0
KPD3 140215Z 09005KT 27/18 A3008 RMK A01 T02680179  RH  058%=      5-min Rain = 0
KPD3 140216Z 09005KT 27/18 A3008 RMK A01 T02680179  RH  058%=      5-min Rain = 0
KPD3 140217Z 09005KT 27/18 A3008 RMK A01 T02670179  RH  058%=      5-min Rain = 0
KPD3 140218Z 09006KT 27/18 A3008 RMK A01 T02670179  RH  058%=      5-min Rain = 0
KPD3 140219Z 09006KT 27/18 A3008 RMK A01 T02670179  RH  058%=      5-min Rain = 0
KPD3 140220Z 09006KT 27/18 A3008 RMK A01 T02670179  RH  058%=      5-min Rain = 0
KPD3 140221Z 09006KT 27/18 A3008 RMK A01 T02670179  RH  059%=      5-min Rain = 0
KPD3 140222Z 09006KT 27/18 A3008 RMK A01 T02670179  RH  059%=      5-min Rain = 0
KPD3 140223Z 09006KT 27/18 A3009 RMK A01 T02670179  RH  058%=      5-min Rain = 0
KPD3 140224Z 09006KT 27/18 A3009 RMK A01 T02680180  RH  058%=      5-min Rain = 0
KPD3 140225Z 09006KT 27/18 A3009 RMK A01 T02690180  RH  058%=      5-min Rain = 0
KPD3 140226Z 10006KT 27/18 A3009 RMK A01 T02700180  RH  058%=      5-min Rain = 0
KPD3 140227Z 10006KT 27/18 A3009 RMK A01 T02710180  RH  058%=      5-min Rain = 0
KPD3 140228Z 09006KT 27/18 A3009 RMK A01 T02710179  RH  057%=      5-min Rain = 0
KPD3 140229Z 09005KT 27/18 A3009 RMK A01 T02700179  RH  058%=      5-min Rain = 0
KPD3 140230Z 09005KT 27/18 A3009 RMK A01 T02690180  RH  058%=      5-min Rain = 0
KPD3 140231Z 09005KT 27/18 A3009 RMK A01 T02680180  RH  058%=      5-min Rain = 0
KPD3 140232Z 09005KT 27/18 A3009 RMK A01 T02680180  RH  059%=      5-min Rain = 0
KPD3 140233Z 08005KT 27/18 A3009 RMK A01 T02680180  RH  059%=      5-min Rain = 0
KPD3 140234Z 07005KT 27/18 A3009 RMK A01 T02670180  RH  059%=      5-min Rain = 0
KPD3 140235Z 06004KT 27/18 A301 RMK A01 T02670179  RH  059%=      5-min Rain = 0
KPD3 140236Z 06005KT 27/18 A301 RMK A01 T02660179  RH  059%=      5-min Rain = 0
KPD3 140237Z 06004KT 27/18 A301 RMK A01 T02650179  RH  059%=      5-min Rain = 0
KPD3 140238Z 05005KT 26/18 A301 RMK A01 T02640179  RH  059%=      5-min Rain = 0
KPD3 140239Z 06005KT 26/18 A301 RMK A01 T02630178  RH  060%=      5-min Rain = 0
KPD3 140240Z 06005KT 26/18 A301 RMK A01 T02620178  RH  060%=      5-min Rain = 0
KPD3 140241Z 07006KT 26/18 A301 RMK A01 T02610178  RH  060%=      5-min Rain = 0
KPD3 140242Z 07005KT 26/18 A301 RMK A01 T02610178  RH  060%=      5-min Rain = 0
KPD3 140243Z 07005KT 26/18 A301 RMK A01 T02610179  RH  060%=      5-min Rain = 0
KPD3 140244Z 07006KT 26/18 A301 RMK A01 T02610179  RH  061%=      5-min Rain = 0
KPD3 140245Z 07006KT 26/18 A301 RMK A01 T02620179  RH  060%=      5-min Rain = 0
KPD3 140246Z 07006KT 26/18 A301 RMK A01 T02630180  RH  060%=      5-min Rain = 0
KPD3 140247Z 08006KT 26/18 A301 RMK A01 T02640180  RH  060%=      5-min Rain = 0
KPD3 140248Z 08006KT 27/18 A301 RMK A01 T02650180  RH  060%=      5-min Rain = 0
KPD3 140249Z 08006KT 27/18 A301 RMK A01 T02650181  RH  060%=      5-min Rain = 0
KPD3 140250Z 08006KT 27/18 A301 RMK A01 T02650181  RH  060%=      5-min Rain = 0
KPD3 140251Z 08007KT 27/18 A301 RMK A01 T02660181  RH  060%=      5-min Rain = 0
KPD3 140252Z 08007KT 27/18 A301 RMK A01 T02660181  RH  060%=      5-min Rain = 0
KPD3 140253Z 09006KT 27/18 A301 RMK A01 T02660181  RH  060%=      5-min Rain = 0
KPD3 140254Z 08006KT 27/18 A301 RMK A01 T02660181  RH  060%=      5-min Rain = 0
KPD3 140255Z 09006KT 27/18 A301 RMK A01 T02660181  RH  060%=      5-min Rain = 0
KPD3 140256Z 09006KT 27/18 A301 RMK A01 T02650181  RH  060%=      5-min Rain = 0
KPD3 140257Z 09006KT 27/18 A301 RMK A01 T02650180  RH  060%=      5-min Rain = 0
KPD3 140258Z 10007KT 26/18 A301 RMK A01 T02630179  RH  060%=      5-min Rain = 0
KPD3 140259Z 10007KT 26/18 A301 RMK A01 T02610179  RH  060%=      5-min Rain = 0
KPD3 140300Z 10007KT 26/18 A301 RMK A01 T02600179  RH  061%=      5-min Rain = 0
KPD3 140301Z 10007KT 26/18 A301 RMK A01 T02590179  RH  061%=      5-min Rain = 0
KPD3 140302Z 10007KT 26/18 A301 RMK A01 T02590179  RH  061%=      5-min Rain = 0
KPD3 140303Z 10007KT 26/18 A301 RMK A01 T02590180  RH  062%=      5-min Rain = 0
KPD3 140304Z 10006KT 26/18 A301 RMK A01 T02580180  RH  062%=      5-min Rain = 0
KPD3 140305Z 10006KT 26/18 A301 RMK A01 T02580180  RH  062%=      5-min Rain = 0
KPD3 140306Z 11006KT 26/18 A301 RMK A01 T02570180  RH  062%=      5-min Rain = 0
KPD3 140307Z 11006KT 26/18 A301 RMK A01 T02560179  RH  063%=      5-min Rain = 0
KPD3 140308Z 11006KT 26/18 A301 RMK A01 T02550179  RH  063%=      5-min Rain = 0
KPD3 140309Z 11007KT 25/18 A301 RMK A01 T02530179  RH  063%=      5-min Rain = 0
KPD3 140310Z 11006KT 25/18 A301 RMK A01 T02520179  RH  064%=      5-min Rain = 0
KPD3 140311Z 11006KT 25/18 A301 RMK A01 T02520179  RH  064%=      5-min Rain = 0
KPD3 140312Z 11006KT 25/18 A301 RMK A01 T02510179  RH  064%=      5-min Rain = 0
KPD3 140313Z 11006KT 25/18 A301 RMK A01 T02500179  RH  064%=      5-min Rain = 0
KPD3 140314Z 11006KT 25/18 A301 RMK A01 T02500179  RH  065%=      5-min Rain = 0
KPD3 140315Z 11006KT 25/18 A301 RMK A01 T02500179  RH  065%=      5-min Rain = 0
KPD3 140316Z 11006KT 25/18 A301 RMK A01 T02500179  RH  065%=      5-min Rain = 0
KPD3 140317Z 11006KT 25/18 A301 RMK A01 T02490179  RH  065%=      5-min Rain = 0
KPD3 140318Z 12006KT 25/18 A301 RMK A01 T02490179  RH  065%=      5-min Rain = 0
KPD3 140319Z 11006KT 25/18 A301 RMK A01 T02480179  RH  065%=      5-min Rain = 0
KPD3 140320Z 11006KT 25/18 A301 RMK A01 T02480178  RH  065%=      5-min Rain = 0
KPD3 140321Z 11006KT 25/18 A301 RMK A01 T02470179  RH  065%=      5-min Rain = 0
KPD3 140322Z 11006KT 25/18 A301 RMK A01 T02470179  RH  066%=      5-min Rain = 0
KPD3 140323Z 10006KT 25/18 A301 RMK A01 T02470179  RH  066%=      5-min Rain = 0
KPD3 140324Z 10005KT 25/18 A301 RMK A01 T02470178  RH  066%=      5-min Rain = 0
KPD3 140325Z 10005KT 25/18 A301 RMK A01 T02470178  RH  065%=      5-min Rain = 0
KPD3 140326Z 10005KT 25/18 A301 RMK A01 T02480178  RH  065%=      5-min Rain = 0
KPD3 140327Z 10004KT 25/18 A301 RMK A01 T02480179  RH  065%=      5-min Rain = 0
KPD3 140328Z 10004KT 25/18 A301 RMK A01 T02470178  RH  065%=      5-min Rain = 0
KPD3 140329Z 09004KT 25/18 A301 RMK A01 T02480178  RH  065%=      5-min Rain = 0
KPD3 140330Z 09004KT 25/18 A301 RMK A01 T02480179  RH  065%=      5-min Rain = 0
KPD3 140331Z 09004KT 25/18 A301 RMK A01 T02480179  RH  065%=      5-min Rain = 0
KPD3 140332Z 09004KT 25/18 A301 RMK A01 T02490179  RH  065%=      5-min Rain = 0
KPD3 140333Z 09004KT 25/18 A301 RMK A01 T02490179  RH  065%=      5-min Rain = 0
KPD3 140334Z 08004KT 25/18 A301 RMK A01 T02500179  RH  065%=      5-min Rain = 0
KPD3 140335Z 09004KT 25/18 A301 RMK A01 T02500179  RH  065%=      5-min Rain = 0
KPD3 140336Z 09004KT 25/18 A3011 RMK A01 T02500179  RH  065%=      5-min Rain = 0
KPD3 140337Z 08004KT 25/18 A3011 RMK A01 T02500179  RH  065%=      5-min Rain = 0
KPD3 140338Z 08004KT 25/18 A3011 RMK A01 T02500179  RH  065%=      5-min Rain = 0
KPD3 140339Z 08004KT 25/18 A3011 RMK A01 T02500179  RH  065%=      5-min Rain = 0
KPD3 140340Z 07004KT 25/18 A3011 RMK A01 T02500179  RH  065%=      5-min Rain = 0
KPD3 140341Z 07004KT 25/18 A3011 RMK A01 T02500179  RH  065%=      5-min Rain = 0
KPD3 140342Z 07004KT 25/18 A3011 RMK A01 T02500179  RH  065%=      5-min Rain = 0
KPD3 140343Z 07004KT 25/18 A3011 RMK A01 T02500179  RH  065%=      5-min Rain = 0
KPD3 140344Z 07004KT 25/18 A3011 RMK A01 T02500179  RH  065%=      5-min Rain = 0
KPD3 140345Z 08004KT 25/18 A3011 RMK A01 T02500179  RH  065%=      5-min Rain = 0
KPD3 140346Z 07003KT 25/18 A3011 RMK A01 T02500179  RH  065%=      5-min Rain = 0
KPD3 140347Z 07003KT 25/18 A3011 RMK A01 T02500179  RH  065%=      5-min Rain = 0
KPD3 140348Z 07003KT 25/18 A3012 RMK A01 T02500179  RH  065%=      5-min Rain = 0
KPD3 140349Z 07003KT 25/18 A3012 RMK A01 T02500179  RH  065%=      5-min Rain = 0
KPD3 140350Z 07004KT 25/18 A3012 RMK A01 T02500179  RH  065%=      5-min Rain = 0
KPD3 140351Z 08004KT 25/18 A3012 RMK A01 T02500179  RH  065%=      5-min Rain = 0
KPD3 140352Z 08004KT 25/18 A3012 RMK A01 T02500179  RH  065%=      5-min Rain = 0
KPD3 140353Z 08004KT 25/18 A3012 RMK A01 T02500179  RH  065%=      5-min Rain = 0
KPD3 140354Z 08004KT 25/18 A3012 RMK A01 T02500179  RH  064%=      5-min Rain = 0
KPD3 140355Z 08004KT 25/18 A3012 RMK A01 T02510179  RH  064%=      5-min Rain = 0
KPD3 140356Z 07004KT 25/18 A3012 RMK A01 T02510179  RH  064%=      5-min Rain = 0
KPD3 140357Z 07004KT 25/18 A3012 RMK A01 T02510179  RH  064%=      5-min Rain = 0
KPD3 140358Z 07004KT 25/18 A3012 RMK A01 T02510179  RH  064%=      5-min Rain = 0
KPD3 140359Z 07003KT 25/18 A3012 RMK A01 T02500178  RH  064%=      5-min Rain = 0
KPD3 140400Z 08003KT 25/18 A3012 RMK A01 T02500178  RH  064%=      5-min Rain = 0
KPD3 140401Z 08003KT 25/18 A3012 RMK A01 T02500178  RH  064%=      5-min Rain = 0
KPD3 140402Z 08003KT 25/18 A3012 RMK A01 T02500178  RH  064%=      5-min Rain = 0
KPD3 140403Z 08003KT 25/18 A3012 RMK A01 T02500178  RH  064%=      5-min Rain = 0
KPD3 140404Z 07003KT 25/18 A3012 RMK A01 T02490178  RH  065%=      5-min Rain = 0
KPD3 140405Z 08003KT 25/18 A3012 RMK A01 T02490178  RH  065%=      5-min Rain = 0
KPD3 140406Z 08003KT 25/18 A3012 RMK A01 T02480178  RH  065%=      5-min Rain = 0
KPD3 140407Z 08004KT 25/18 A3012 RMK A01 T02480178  RH  065%=      5-min Rain = 0
KPD3 140408Z 07004KT 25/18 A3012 RMK A01 T02470178  RH  065%=      5-min Rain = 0
KPD3 140409Z 07004KT 25/18 A3012 RMK A01 T02470178  RH  065%=      5-min Rain = 0
KPD3 140410Z 07004KT 25/18 A3012 RMK A01 T02470177  RH  065%=      5-min Rain = 0
KPD3 140411Z 07005KT 25/18 A3012 RMK A01 T02480178  RH  065%=      5-min Rain = 0
KPD3 140412Z 07005KT 25/18 A3013 RMK A01 T02480177  RH  065%=      5-min Rain = 0
KPD3 140413Z 06005KT 25/18 A3013 RMK A01 T02480178  RH  065%=      5-min Rain = 0
KPD3 140414Z 07005KT 25/18 A3013 RMK A01 T02480177  RH  065%=      5-min Rain = 0
KPD3 140415Z 07005KT 25/18 A3013 RMK A01 T02490178  RH  065%=      5-min Rain = 0
KPD3 140416Z 07005KT 25/18 A3013 RMK A01 T02490178  RH  065%=      5-min Rain = 0
KPD3 140417Z 07005KT 25/18 A3013 RMK A01 T02490178  RH  065%=      5-min Rain = 0
KPD3 140418Z 07005KT 25/18 A3012 RMK A01 T02490178  RH  065%=      5-min Rain = 0
KPD3 140419Z 07005KT 25/18 A3012 RMK A01 T02490179  RH  065%=      5-min Rain = 0
KPD3 140420Z 08005KT 25/18 A3012 RMK A01 T02490179  RH  065%=      5-min Rain = 0
KPD3 140421Z 08006KT 25/18 A3012 RMK A01 T02490179  RH  065%=      5-min Rain = 0
KPD3 140422Z 08006KT 25/18 A3012 RMK A01 T02490178  RH  065%=      5-min Rain = 0
KPD3 140423Z 08006KT 25/18 A3012 RMK A01 T02480178  RH  065%=      5-min Rain = 0
KPD3 140424Z 08006KT 25/18 A3012 RMK A01 T02480179  RH  065%=      5-min Rain = 0
KPD3 140425Z 08005KT 25/18 A3012 RMK A01 T02480178  RH  065%=      5-min Rain = 0
KPD3 140426Z 08005KT 25/18 A3012 RMK A01 T02480178  RH  065%=      5-min Rain = 0
KPD3 140427Z 08005KT 25/18 A3012 RMK A01 T02470178  RH  065%=      5-min Rain = 0
KPD3 140428Z 09004KT 25/18 A3012 RMK A01 T02470178  RH  065%=      5-min Rain = 0
KPD3 140429Z 09004KT 25/18 A3012 RMK A01 T02470177  RH  065%=      5-min Rain = 0
KPD3 140430Z 09004KT 25/18 A3012 RMK A01 T02460177  RH  065%=      5-min Rain = 0
KPD3 140431Z 09004KT 25/18 A3012 RMK A01 T02450177  RH  066%=      5-min Rain = 0
KPD3 140432Z 08003KT 24/18 A3012 RMK A01 T02440176  RH  066%=      5-min Rain = 0
KPD3 140433Z 08004KT 24/18 A3012 RMK A01 T02440176  RH  066%=      5-min Rain = 0
KPD3 140434Z 08004KT 24/18 A3012 RMK A01 T02440177  RH  066%=      5-min Rain = 0
KPD3 140435Z 08004KT 24/18 A3012 RMK A01 T02440177  RH  066%=      5-min Rain = 0
KPD3 140436Z 08004KT 24/18 A3012 RMK A01 T02440177  RH  066%=      5-min Rain = 0
KPD3 140437Z 08004KT 24/18 A3012 RMK A01 T02440177  RH  066%=      5-min Rain = 0
KPD3 140438Z 08004KT 24/18 A3012 RMK A01 T02440176  RH  066%=      5-min Rain = 0
KPD3 140439Z 08004KT 25/18 A3012 RMK A01 T02450176  RH  066%=      5-min Rain = 0
KPD3 140440Z 09005KT 24/18 A3012 RMK A01 T02440176  RH  066%=      5-min Rain = 0
KPD3 140441Z 09005KT 24/18 A3012 RMK A01 T02440176  RH  066%=      5-min Rain = 0
KPD3 140442Z 09005KT 24/18 A3013 RMK A01 T02430176  RH  066%=      5-min Rain = 0
KPD3 140443Z 08005KT 24/18 A3013 RMK A01 T02430176  RH  066%=      5-min Rain = 0
KPD3 140444Z 08005KT 24/18 A3013 RMK A01 T02420176  RH  066%=      5-min Rain = 0
KPD3 140445Z 07005KT 24/18 A3013 RMK A01 T02420176  RH  067%=      5-min Rain = 0
KPD3 140446Z 07005KT 24/18 A3013 RMK A01 T02420176  RH  066%=      5-min Rain = 0
KPD3 140447Z 06005KT 24/18 A3013 RMK A01 T02420175  RH  066%=      5-min Rain = 0
KPD3 140448Z 06004KT 24/18 A3013 RMK A01 T02420175  RH  066%=      5-min Rain = 0
KPD3 140449Z 06004KT 24/18 A3013 RMK A01 T02420175  RH  066%=      5-min Rain = 0
KPD3 140450Z 06005KT 24/18 A3013 RMK A01 T02420175  RH  066%=      5-min Rain = 0
KPD3 140451Z 06005KT 24/17 A3013 RMK A01 T02420174  RH  066%=      5-min Rain = 0
KPD3 140452Z 06004KT 24/18 A3013 RMK A01 T02430175  RH  066%=      5-min Rain = 0
KPD3 140453Z 06005KT 24/18 A3013 RMK A01 T02430175  RH  066%=      5-min Rain = 0
KPD3 140454Z 06004KT 24/18 A3013 RMK A01 T02430175  RH  065%=      5-min Rain = 0
KPD3 140455Z 06005KT 24/18 A3013 RMK A01 T02440175  RH  065%=      5-min Rain = 0
KPD3 140456Z 06005KT 24/18 A3013 RMK A01 T02430175  RH  065%=      5-min Rain = 0
KPD3 140457Z 06005KT 24/18 A3013 RMK A01 T02430175  RH  066%=      5-min Rain = 0
KPD3 140458Z 07005KT 24/18 A3013 RMK A01 T02430175  RH  066%=      5-min Rain = 0
KPD3 140459Z 06005KT 24/17 A3013 RMK A01 T02430174  RH  065%=      5-min Rain = 0

Page generated in 0.0736 seconds.